Observation data for Palo Duro Canyon State Park Floor on 03/11/2018      Previous  Date  Next       Current Mesonet Observations  Soil Data  Daily Summary Page  Observations in Plain Language
KPD2 110600Z 31007G13KT 12/M04 A3005 RMK A01 T01241044  RH  031%=      5-min Rain = 0
KPD2 110601Z 29007KT 12/M04 A3005 RMK A01 T01241044  RH  031%=      5-min Rain = 0
KPD2 110602Z 32011G19KT 12/M04 A3005 RMK A01 T01241043  RH  031%=      5-min Rain = 0
KPD2 110603Z 34007G14KT 12/M04 A3005 RMK A01 T01241043  RH  031%=      5-min Rain = 0
KPD2 110604Z 32008G14KT 12/M04 A3005 RMK A01 T01241042  RH  031%=      5-min Rain = 0
KPD2 110605Z 33011G19KT 12/M04 A3005 RMK A01 T01241042  RH  031%=      5-min Rain = 0
KPD2 110606Z 33007KT 12/M04 A3005 RMK A01 T01241042  RH  031%=      5-min Rain = 0
KPD2 110607Z 31010KT 12/M04 A3005 RMK A01 T01231041  RH  031%=      5-min Rain = 0
KPD2 110608Z 33009G15KT 12/M04 A3005 RMK A01 T01231041  RH  031%=      5-min Rain = 0
KPD2 110609Z 33011KT 12/M04 A3005 RMK A01 T01231041  RH  032%=      5-min Rain = 0
KPD2 110610Z 33011G16KT 12/M04 A3005 RMK A01 T01231041  RH  032%=      5-min Rain = 0
KPD2 110611Z 34013G21KT 12/M04 A3006 RMK A01 T01231040  RH  032%=      5-min Rain = 0
KPD2 110612Z 33004KT 12/M04 A3006 RMK A01 T01231040  RH  032%=      5-min Rain = 0
KPD2 110613Z 31007KT 12/M04 A3005 RMK A01 T01231040  RH  032%=      5-min Rain = 0
KPD2 110614Z 32012G19KT 12/M04 A3006 RMK A01 T01231040  RH  032%=      5-min Rain = 0
KPD2 110615Z 29005KT 12/M04 A3006 RMK A01 T01231040  RH  032%=      5-min Rain = 0
KPD2 110616Z 30007KT 12/M04 A3006 RMK A01 T01221040  RH  032%=      5-min Rain = 0
KPD2 110617Z 33012G21KT 12/M04 A3006 RMK A01 T01221040  RH  032%=      5-min Rain = 0
KPD2 110618Z 30007KT 12/M04 A3006 RMK A01 T01221040  RH  032%=      5-min Rain = 0
KPD2 110619Z 32013G26KT 12/M04 A3006 RMK A01 T01221040  RH  032%=      5-min Rain = 0
KPD2 110620Z 33010KT 12/M04 A3006 RMK A01 T01221040  RH  032%=      5-min Rain = 0
KPD2 110621Z 34010G18KT 12/M04 A3006 RMK A01 T01211040  RH  032%=      5-min Rain = 0
KPD2 110622Z 31011G16KT 12/M04 A3006 RMK A01 T01211040  RH  032%=      5-min Rain = 0
KPD2 110623Z 31010G15KT 12/M04 A3006 RMK A01 T01211040  RH  032%=      5-min Rain = 0
KPD2 110624Z 31009G15KT 12/M04 A3006 RMK A01 T01211040  RH  032%=      5-min Rain = 0
KPD2 110625Z 31010KT 12/M04 A3006 RMK A01 T01211040  RH  032%=      5-min Rain = 0
KPD2 110626Z 29009G14KT 12/M04 A3006 RMK A01 T01201040  RH  032%=      5-min Rain = 0
KPD2 110627Z 31010G15KT 12/M04 A3006 RMK A01 T01201040  RH  032%=      5-min Rain = 0
KPD2 110628Z 33008G14KT 12/M04 A3006 RMK A01 T01201039  RH  033%=      5-min Rain = 0
KPD2 110629Z 33012G19KT 12/M04 A3006 RMK A01 T01201039  RH  033%=      5-min Rain = 0
KPD2 110630Z 33008KT 12/M04 A3006 RMK A01 T01201039  RH  033%=      5-min Rain = 0
KPD2 110631Z 32008KT 12/M04 A3007 RMK A01 T01201039  RH  033%=      5-min Rain = 0
KPD2 110632Z 29007G13KT 12/M04 A3006 RMK A01 T01201040  RH  033%=      5-min Rain = 0
KPD2 110633Z 31009G15KT 12/M04 A3006 RMK A01 T01191039  RH  033%=      5-min Rain = 0
KPD2 110634Z 01006G13KT 12/M04 A3007 RMK A01 T01191039  RH  033%=      5-min Rain = 0
KPD2 110635Z 29005G11KT 12/M04 A3007 RMK A01 T01191039  RH  033%=      5-min Rain = 0
KPD2 110636Z 32011G17KT 12/M04 A3006 RMK A01 T01191039  RH  033%=      5-min Rain = 0
KPD2 110637Z 33009G16KT 12/M04 A3007 RMK A01 T01181039  RH  033%=      5-min Rain = 0
KPD2 110638Z 31005KT 12/M04 A3007 RMK A01 T01181039  RH  033%=      5-min Rain = 0
KPD2 110639Z 30006G12KT 12/M04 A3007 RMK A01 T01181039  RH  033%=      5-min Rain = 0
KPD2 110640Z 30009G15KT 12/M04 A3006 RMK A01 T01181039  RH  033%=      5-min Rain = 0
KPD2 110641Z 34005G10KT 12/M04 A3007 RMK A01 T01181039  RH  033%=      5-min Rain = 0
KPD2 110642Z 31006KT 12/M04 A3007 RMK A01 T01181039  RH  033%=      5-min Rain = 0
KPD2 110643Z 30011G16KT 12/M04 A3006 RMK A01 T01181039  RH  033%=      5-min Rain = 0
KPD2 110644Z 31009G14KT 12/M04 A3007 RMK A01 T01171039  RH  033%=      5-min Rain = 0
KPD2 110645Z 32009G16KT 12/M04 A3007 RMK A01 T01181038  RH  033%=      5-min Rain = 0
KPD2 110646Z 30007KT 12/M04 A3007 RMK A01 T01171039  RH  034%=      5-min Rain = 0
KPD2 110647Z 31007KT 12/M04 A3007 RMK A01 T01171038  RH  034%=      5-min Rain = 0
KPD2 110648Z 30007KT 12/M04 A3007 RMK A01 T01171038  RH  034%=      5-min Rain = 0
KPD2 110649Z 29009G14KT 12/M04 A3007 RMK A01 T01161038  RH  034%=      5-min Rain = 0
KPD2 110650Z 32008G18KT 12/M04 A3007 RMK A01 T01161038  RH  034%=      5-min Rain = 0
KPD2 110651Z 32007G12KT 12/M04 A3008 RMK A01 T01161038  RH  034%=      5-min Rain = 0
KPD2 110652Z 30005KT 12/M04 A3007 RMK A01 T01161037  RH  034%=      5-min Rain = 0
KPD2 110653Z 29007KT 12/M04 A3007 RMK A01 T01161038  RH  034%=      5-min Rain = 0
KPD2 110654Z 30008KT 12/M04 A3008 RMK A01 T01151038  RH  034%=      5-min Rain = 0
KPD2 110655Z 29007KT 12/M04 A3007 RMK A01 T01151038  RH  034%=      5-min Rain = 0
KPD2 110656Z 30006KT 12/M04 A3008 RMK A01 T01151038  RH  034%=      5-min Rain = 0
KPD2 110657Z 29004KT 11/M04 A3008 RMK A01 T01141038  RH  034%=      5-min Rain = 0
KPD2 110658Z 29004KT 11/M04 A3008 RMK A01 T01141037  RH  034%=      5-min Rain = 0
KPD2 110659Z 27004KT 11/M04 A3008 RMK A01 T01141037  RH  034%=      5-min Rain = 0
KPD2 110700Z 32004KT 11/M04 A3008 RMK A01 T01141037  RH  034%=      5-min Rain = 0
KPD2 110701Z 30005KT 11/M04 A3008 RMK A01 T01141037  RH  034%=      5-min Rain = 0
KPD2 110702Z 28007G12KT 11/M04 A3008 RMK A01 T01141037  RH  035%=      5-min Rain = 0
KPD2 110703Z 29008KT 11/M04 A3008 RMK A01 T01141037  RH  035%=      5-min Rain = 0
KPD2 110704Z 31011KT 11/M04 A3008 RMK A01 T01141037  RH  035%=      5-min Rain = 0
KPD2 110705Z 31008KT 11/M04 A3008 RMK A01 T01141036  RH  035%=      5-min Rain = 0
KPD2 110706Z 28007G12KT 11/M04 A3008 RMK A01 T01141037  RH  035%=      5-min Rain = 0
KPD2 110707Z 29005KT 11/M04 A3008 RMK A01 T01131037  RH  035%=      5-min Rain = 0
KPD2 110708Z 27007G12KT 11/M04 A3008 RMK A01 T01131037  RH  035%=      5-min Rain = 0
KPD2 110709Z 30008KT 11/M04 A3008 RMK A01 T01131037  RH  035%=      5-min Rain = 0
KPD2 110710Z 31007KT 11/M04 A3009 RMK A01 T01131037  RH  035%=      5-min Rain = 0
KPD2 110711Z 27005KT 11/M04 A3008 RMK A01 T01121037  RH  035%=      5-min Rain = 0
KPD2 110712Z 32006KT 11/M04 A3009 RMK A01 T01121037  RH  035%=      5-min Rain = 0
KPD2 110713Z 30009KT 11/M04 A3008 RMK A01 T01121037  RH  035%=      5-min Rain = 0
KPD2 110714Z 01004G9KT 11/M04 A3009 RMK A01 T01121037  RH  035%=      5-min Rain = 0
KPD2 110715Z 29006G13KT 11/M04 A3009 RMK A01 T01121037  RH  035%=      5-min Rain = 0
KPD2 110716Z 29007KT 11/M04 A3008 RMK A01 T01121037  RH  035%=      5-min Rain = 0
KPD2 110717Z 32008KT 11/M04 A3009 RMK A01 T01121037  RH  035%=      5-min Rain = 0
KPD2 110718Z 31004KT 11/M04 A3009 RMK A01 T01121037  RH  035%=      5-min Rain = 0
KPD2 110719Z 29005KT 11/M04 A3009 RMK A01 T01121036  RH  035%=      5-min Rain = 0
KPD2 110720Z 31008G13KT 11/M04 A3009 RMK A01 T01121036  RH  035%=      5-min Rain = 0
KPD2 110721Z 29005KT 11/M04 A3009 RMK A01 T01121037  RH  035%=      5-min Rain = 0
KPD2 110722Z 28005KT 11/M04 A3009 RMK A01 T01121036  RH  035%=      5-min Rain = 0
KPD2 110723Z 30007KT 11/M04 A3009 RMK A01 T01111037  RH  035%=      5-min Rain = 0
KPD2 110724Z 33004G9KT 11/M04 A3009 RMK A01 T01101037  RH  035%=      5-min Rain = 0
KPD2 110725Z 28005KT 11/M04 A301 RMK A01 T01111036  RH  036%=      5-min Rain = 0
KPD2 110726Z 29005KT 11/M04 A3009 RMK A01 T01111036  RH  036%=      5-min Rain = 0
KPD2 110727Z 31005KT 11/M04 A3009 RMK A01 T01101037  RH  036%=      5-min Rain = 0
KPD2 110728Z 30005KT 11/M04 A3009 RMK A01 T01101036  RH  036%=      5-min Rain = 0
KPD2 110729Z 31006KT 11/M04 A301 RMK A01 T01101036  RH  036%=      5-min Rain = 0
KPD2 110730Z 32009KT 11/M04 A3009 RMK A01 T01101037  RH  036%=      5-min Rain = 0
KPD2 110731Z 30007G13KT 11/M04 A301 RMK A01 T01101036  RH  036%=      5-min Rain = 0
KPD2 110732Z 31006KT 11/M04 A301 RMK A01 T01091037  RH  036%=      5-min Rain = 0
KPD2 110733Z 29004KT 11/M04 A301 RMK A01 T01091037  RH  036%=      5-min Rain = 0
KPD2 110734Z 28005KT 11/M04 A301 RMK A01 T01091037  RH  036%=      5-min Rain = 0
KPD2 110735Z 31007G12KT 11/M04 A301 RMK A01 T01091037  RH  036%=      5-min Rain = 0
KPD2 110736Z 28007KT 11/M04 A301 RMK A01 T01091036  RH  036%=      5-min Rain = 0
KPD2 110737Z 29007KT 11/M04 A301 RMK A01 T01081037  RH  036%=      5-min Rain = 0
KPD2 110738Z 29005KT 11/M04 A301 RMK A01 T01081037  RH  036%=      5-min Rain = 0
KPD2 110739Z 29006KT 11/M04 A301 RMK A01 T01081037  RH  036%=      5-min Rain = 0
KPD2 110740Z 30006KT 11/M04 A301 RMK A01 T01071037  RH  036%=      5-min Rain = 0
KPD2 110741Z 30008KT 11/M04 A301 RMK A01 T01071037  RH  036%=      5-min Rain = 0
KPD2 110742Z 30006KT 11/M04 A301 RMK A01 T01071037  RH  036%=      5-min Rain = 0
KPD2 110743Z 28005KT 11/M04 A301 RMK A01 T01071036  RH  036%=      5-min Rain = 0
KPD2 110744Z 30007KT 11/M04 A301 RMK A01 T01071036  RH  036%=      5-min Rain = 0
KPD2 110745Z 30007KT 11/M04 A301 RMK A01 T01071036  RH  036%=      5-min Rain = 0
KPD2 110746Z 31006KT 11/M04 A301 RMK A01 T01071037  RH  036%=      5-min Rain = 0
KPD2 110747Z 30006KT 11/M04 A301 RMK A01 T01071037  RH  036%=      5-min Rain = 0
KPD2 110748Z 30006KT 11/M04 A301 RMK A01 T01061037  RH  036%=      5-min Rain = 0
KPD2 110749Z 32006KT 11/M04 A301 RMK A01 T01061037  RH  036%=      5-min Rain = 0
KPD2 110750Z 30006KT 11/M04 A301 RMK A01 T01051037  RH  037%=      5-min Rain = 0
KPD2 110751Z 29007KT 11/M04 A301 RMK A01 T01051037  RH  037%=      5-min Rain = 0
KPD2 110752Z 29006KT 11/M04 A301 RMK A01 T01051037  RH  037%=      5-min Rain = 0
KPD2 110753Z 30005KT 11/M04 A301 RMK A01 T01051037  RH  037%=      5-min Rain = 0
KPD2 110754Z 29006KT 11/M04 A301 RMK A01 T01051037  RH  037%=      5-min Rain = 0
KPD2 110755Z 29006KT 11/M04 A301 RMK A01 T01051036  RH  037%=      5-min Rain = 0
KPD2 110756Z 30006KT 11/M04 A301 RMK A01 T01051037  RH  037%=      5-min Rain = 0
KPD2 110757Z 29003KT 11/M04 A301 RMK A01 T01051037  RH  037%=      5-min Rain = 0
KPD2 110758Z 29007KT 11/M04 A301 RMK A01 T01051037  RH  037%=      5-min Rain = 0
KPD2 110759Z 30005KT 11/M04 A301 RMK A01 T01051037  RH  037%=      5-min Rain = 0
KPD2 110800Z 30006KT 10/M04 A301 RMK A01 T01041037  RH  037%=      5-min Rain = 0
KPD2 110801Z 31005KT 10/M04 A3011 RMK A01 T01041037  RH  037%=      5-min Rain = 0
KPD2 110802Z 29008KT 10/M04 A3011 RMK A01 T01031037  RH  037%=      5-min Rain = 0
KPD2 110803Z 30007KT 10/M04 A3011 RMK A01 T01031037  RH  037%=      5-min Rain = 0
KPD2 110804Z 28005KT 10/M04 A3011 RMK A01 T01031037  RH  037%=      5-min Rain = 0
KPD2 110805Z 30006KT 10/M04 A3011 RMK A01 T01031037  RH  037%=      5-min Rain = 0
KPD2 110806Z 30007KT 10/M04 A3011 RMK A01 T01031037  RH  037%=      5-min Rain = 0
KPD2 110807Z 30005KT 10/M04 A3011 RMK A01 T01031037  RH  037%=      5-min Rain = 0
KPD2 110808Z 27003KT 10/M04 A3011 RMK A01 T01031037  RH  037%=      5-min Rain = 0
KPD2 110809Z 29005KT 10/M04 A3011 RMK A01 T01031037  RH  037%=      5-min Rain = 0
KPD2 110810Z 29006KT 10/M04 A3011 RMK A01 T01021037  RH  037%=      5-min Rain = 0
KPD2 110811Z 29004KT 10/M04 A3011 RMK A01 T01021037  RH  037%=      5-min Rain = 0
KPD2 110812Z 29004KT 10/M04 A3011 RMK A01 T01021037  RH  037%=      5-min Rain = 0
KPD2 110813Z 30005G11KT 10/M04 A3011 RMK A01 T01021038  RH  037%=      5-min Rain = 0
KPD2 110814Z 31008KT 10/M04 A3011 RMK A01 T01011038  RH  037%=      5-min Rain = 0
KPD2 110815Z 29007KT 10/M04 A3011 RMK A01 T01011038  RH  037%=      5-min Rain = 0
KPD2 110816Z 28006KT 10/M04 A3011 RMK A01 T01011038  RH  037%=      5-min Rain = 0
KPD2 110817Z 28004KT 10/M04 A3011 RMK A01 T01011038  RH  037%=      5-min Rain = 0
KPD2 110818Z 30007KT 10/M04 A3011 RMK A01 T01011038  RH  037%=      5-min Rain = 0
KPD2 110819Z 29004KT 10/M04 A3011 RMK A01 T01011038  RH  037%=      5-min Rain = 0
KPD2 110820Z 28005KT 10/M04 A3011 RMK A01 T01011038  RH  037%=      5-min Rain = 0
KPD2 110821Z 30005KT 10/M04 A3011 RMK A01 T01001038  RH  037%=      5-min Rain = 0
KPD2 110822Z 29007G12KT 10/M04 A3011 RMK A01 T01001038  RH  038%=      5-min Rain = 0
KPD2 110823Z 28008KT 10/M04 A3011 RMK A01 T01001038  RH  038%=      5-min Rain = 0
KPD2 110824Z 30006KT 10/M04 A3011 RMK A01 T01001038  RH  038%=      5-min Rain = 0
KPD2 110825Z 32005KT 10/M04 A3011 RMK A01 T01001038  RH  038%=      5-min Rain = 0
KPD2 110826Z 28004KT 10/M04 A3011 RMK A01 T01001038  RH  038%=      5-min Rain = 0
KPD2 110827Z 30004KT 10/M04 A3011 RMK A01 T01001038  RH  038%=      5-min Rain = 0
KPD2 110828Z 31004KT 10/M04 A3011 RMK A01 T01001038  RH  038%=      5-min Rain = 0
KPD2 110829Z 30006KT 10/M04 A3011 RMK A01 T00991039  RH  038%=      5-min Rain = 0
KPD2 110830Z 30006G11KT 10/M04 A3011 RMK A01 T00991039  RH  038%=      5-min Rain = 0
KPD2 110831Z 29004KT 10/M04 A3011 RMK A01 T00991039  RH  038%=      5-min Rain = 0
KPD2 110832Z 28005KT 10/M04 A3011 RMK A01 T00991039  RH  038%=      5-min Rain = 0
KPD2 110833Z 29004KT 10/M04 A3011 RMK A01 T00991039  RH  038%=      5-min Rain = 0
KPD2 110834Z 30004KT 10/M04 A3011 RMK A01 T00991039  RH  038%=      5-min Rain = 0
KPD2 110835Z 30005KT 10/M04 A3011 RMK A01 T00991039  RH  038%=      5-min Rain = 0
KPD2 110836Z 29006KT 10/M04 A3011 RMK A01 T00981039  RH  038%=      5-min Rain = 0
KPD2 110837Z 31007KT 10/M04 A3011 RMK A01 T00981039  RH  038%=      5-min Rain = 0
KPD2 110838Z 29007KT 10/M04 A3011 RMK A01 T00981039  RH  038%=      5-min Rain = 0
KPD2 110839Z 31007KT 10/M04 A3011 RMK A01 T00981039  RH  038%=      5-min Rain = 0
KPD2 110840Z 29005KT 10/M04 A3011 RMK A01 T00981039  RH  038%=      5-min Rain = 0
KPD2 110841Z 29004KT 10/M04 A3011 RMK A01 T00981039  RH  038%=      5-min Rain = 0
KPD2 110842Z 29006KT 10/M04 A3011 RMK A01 T00981039  RH  038%=      5-min Rain = 0
KPD2 110843Z 28006KT 10/M04 A3011 RMK A01 T00981039  RH  038%=      5-min Rain = 0
KPD2 110844Z 29008KT 10/M04 A3011 RMK A01 T00981039  RH  038%=      5-min Rain = 0
KPD2 110845Z 31005KT 10/M04 A3011 RMK A01 T00981039  RH  038%=      5-min Rain = 0
KPD2 110846Z 31006KT 10/M04 A3011 RMK A01 T00981039  RH  038%=      5-min Rain = 0
KPD2 110847Z 30006KT 10/M04 A3011 RMK A01 T00981039  RH  038%=      5-min Rain = 0
KPD2 110848Z 30009KT 10/M04 A3011 RMK A01 T00981039  RH  038%=      5-min Rain = 0
KPD2 110849Z 32006KT 10/M04 A3012 RMK A01 T00981039  RH  038%=      5-min Rain = 0
KPD2 110850Z 31006KT 10/M04 A3012 RMK A01 T00981039  RH  038%=      5-min Rain = 0
KPD2 110851Z 30007KT 10/M04 A3012 RMK A01 T00981039  RH  038%=      5-min Rain = 0
KPD2 110852Z 29006KT 10/M04 A3012 RMK A01 T00981039  RH  038%=      5-min Rain = 0
KPD2 110853Z 33007KT 10/M04 A3012 RMK A01 T00981039  RH  038%=      5-min Rain = 0
KPD2 110854Z 34008KT 10/M04 A3012 RMK A01 T00981040  RH  038%=      5-min Rain = 0
KPD2 110855Z 30007KT 10/M04 A3012 RMK A01 T00981039  RH  038%=      5-min Rain = 0
KPD2 110856Z 29006G12KT 10/M04 A3012 RMK A01 T00981039  RH  038%=      5-min Rain = 0
KPD2 110857Z 29007KT 10/M04 A3012 RMK A01 T00981040  RH  038%=      5-min Rain = 0
KPD2 110858Z 30005KT 10/M04 A3012 RMK A01 T00981040  RH  038%=      5-min Rain = 0
KPD2 110859Z 30006KT 10/M04 A3012 RMK A01 T00981040  RH  038%=      5-min Rain = 0
KPD2 110900Z 31005KT 10/M04 A3012 RMK A01 T00971040  RH  038%=      5-min Rain = 0
KPD2 110901Z 32009KT 10/M04 A3012 RMK A01 T00971040  RH  038%=      5-min Rain = 0
KPD2 110902Z 32009KT 10/M04 A3012 RMK A01 T00971041  RH  038%=      5-min Rain = 0
KPD2 110903Z 31007KT 10/M04 A3012 RMK A01 T00961041  RH  038%=      5-min Rain = 0
KPD2 110904Z 30007KT 10/M04 A3012 RMK A01 T00961041  RH  038%=      5-min Rain = 0
KPD2 110905Z 30009KT 10/M04 A3012 RMK A01 T00971041  RH  037%=      5-min Rain = 0
KPD2 110906Z 30007KT 10/M04 A3012 RMK A01 T00971042  RH  037%=      5-min Rain = 0
KPD2 110907Z 29006KT 10/M04 A3012 RMK A01 T00971042  RH  037%=      5-min Rain = 0
KPD2 110908Z 32009G14KT 10/M04 A3012 RMK A01 T00971042  RH  037%=      5-min Rain = 0
KPD2 110909Z 32010KT 10/M04 A3012 RMK A01 T00971042  RH  037%=      5-min Rain = 0
KPD2 110910Z 31009KT 10/M04 A3012 RMK A01 T00971043  RH  037%=      5-min Rain = 0
KPD2 110911Z 31009G14KT 10/M04 A3012 RMK A01 T00971043  RH  037%=      5-min Rain = 0
KPD2 110912Z 32008G13KT 10/M04 A3012 RMK A01 T00971044  RH  037%=      5-min Rain = 0
KPD2 110913Z 31009KT 10/M04 A3012 RMK A01 T00971044  RH  037%=      5-min Rain = 0
KPD2 110914Z 28010KT 10/M04 A3012 RMK A01 T00971044  RH  037%=      5-min Rain = 0
KPD2 110915Z 30009KT 10/M04 A3012 RMK A01 T00971044  RH  037%=      5-min Rain = 0
KPD2 110916Z 33007KT 10/M04 A3012 RMK A01 T00971044  RH  037%=      5-min Rain = 0
KPD2 110917Z 33009G14KT 10/M04 A3012 RMK A01 T00981044  RH  037%=      5-min Rain = 0
KPD2 110918Z 30009KT 10/M05 A3012 RMK A01 T00971045  RH  036%=      5-min Rain = 0
KPD2 110919Z 33015KT 10/M05 A3012 RMK A01 T00971045  RH  036%=      5-min Rain = 0
KPD2 110920Z 32011KT 10/M05 A3013 RMK A01 T00981045  RH  036%=      5-min Rain = 0
KPD2 110921Z 30012KT 10/M05 A3012 RMK A01 T00971046  RH  036%=      5-min Rain = 0
KPD2 110922Z 29007KT 10/M05 A3012 RMK A01 T00971047  RH  036%=      5-min Rain = 0
KPD2 110923Z 34011G16KT 10/M05 A3013 RMK A01 T00971047  RH  036%=      5-min Rain = 0
KPD2 110924Z 32010G18KT 10/M05 A3012 RMK A01 T00971048  RH  036%=      5-min Rain = 0
KPD2 110925Z 33012G18KT 10/M05 A3013 RMK A01 T00971048  RH  036%=      5-min Rain = 0
KPD2 110926Z 32012G20KT 10/M05 A3013 RMK A01 T00961048  RH  036%=      5-min Rain = 0
KPD2 110927Z 32012G17KT 10/M05 A3013 RMK A01 T00961048  RH  036%=      5-min Rain = 0
KPD2 110928Z 32011G17KT 10/M05 A3013 RMK A01 T00961049  RH  036%=      5-min Rain = 0
KPD2 110929Z 31011KT 10/M05 A3013 RMK A01 T00961049  RH  036%=      5-min Rain = 0
KPD2 110930Z 32011KT 10/M05 A3013 RMK A01 T00961048  RH  036%=      5-min Rain = 0
KPD2 110931Z 32012KT 10/M05 A3013 RMK A01 T00961049  RH  036%=      5-min Rain = 0
KPD2 110932Z 31009KT 10/M05 A3013 RMK A01 T00961049  RH  036%=      5-min Rain = 0
KPD2 110933Z 32010G18KT 10/M05 A3013 RMK A01 T00961049  RH  036%=      5-min Rain = 0
KPD2 110934Z 32013KT 10/M05 A3013 RMK A01 T00951049  RH  036%=      5-min Rain = 0
KPD2 110935Z 32009G14KT 10/M05 A3013 RMK A01 T00951048  RH  036%=      5-min Rain = 0
KPD2 110936Z 33012KT 10/M05 A3013 RMK A01 T00951049  RH  036%=      5-min Rain = 0
KPD2 110937Z 32011G17KT 09/M05 A3013 RMK A01 T00941048  RH  036%=      5-min Rain = 0
KPD2 110938Z 32010KT 09/M05 A3013 RMK A01 T00941047  RH  036%=      5-min Rain = 0
KPD2 110939Z 34010G17KT 09/M05 A3013 RMK A01 T00941047  RH  037%=      5-min Rain = 0
KPD2 110940Z 35011KT 09/M05 A3013 RMK A01 T00931047  RH  037%=      5-min Rain = 0
KPD2 110941Z 30007KT 09/M05 A3013 RMK A01 T00931047  RH  037%=      5-min Rain = 0
KPD2 110942Z 31006G11KT 09/M05 A3013 RMK A01 T00931047  RH  037%=      5-min Rain = 0
KPD2 110943Z 30009G14KT 09/M05 A3013 RMK A01 T00931047  RH  037%=      5-min Rain = 0
KPD2 110944Z 31009KT 09/M05 A3013 RMK A01 T00921048  RH  037%=      5-min Rain = 0
KPD2 110945Z 32010KT 09/M05 A3014 RMK A01 T00911048  RH  037%=      5-min Rain = 0
KPD2 110946Z 31009KT 09/M05 A3014 RMK A01 T00911048  RH  037%=      5-min Rain = 0
KPD2 110947Z 33010G16KT 09/M05 A3014 RMK A01 T00901048  RH  037%=      5-min Rain = 0
KPD2 110948Z 33009G14KT 09/M05 A3014 RMK A01 T00901049  RH  037%=      5-min Rain = 0
KPD2 110949Z 34009KT 09/M05 A3014 RMK A01 T00901049  RH  037%=      5-min Rain = 0
KPD2 110950Z 33011KT 09/M05 A3014 RMK A01 T00891049  RH  037%=      5-min Rain = 0
KPD2 110951Z 31006G11KT 09/M05 A3014 RMK A01 T00891049  RH  037%=      5-min Rain = 0
KPD2 110952Z 31009G14KT 09/M05 A3014 RMK A01 T00891049  RH  037%=      5-min Rain = 0
KPD2 110953Z 32013KT 09/M05 A3014 RMK A01 T00891050  RH  037%=      5-min Rain = 0
KPD2 110954Z 32009G16KT 09/M05 A3014 RMK A01 T00891050  RH  037%=      5-min Rain = 0
KPD2 110955Z 31008KT 09/M05 A3014 RMK A01 T00881051  RH  037%=      5-min Rain = 0
KPD2 110956Z 32007G12KT 09/M05 A3014 RMK A01 T00881052  RH  037%=      5-min Rain = 0
KPD2 110957Z 32010KT 09/M05 A3014 RMK A01 T00881052  RH  037%=      5-min Rain = 0
KPD2 110958Z 32005G10KT 09/M05 A3014 RMK A01 T00871053  RH  037%=      5-min Rain = 0
KPD2 110959Z 32010KT 09/M05 A3014 RMK A01 T00871054  RH  036%=      5-min Rain = 0
KPD2 111000Z 31011KT 09/M05 A3014 RMK A01 T00871054  RH  036%=      5-min Rain = 0
KPD2 111001Z 31009KT 09/M06 A3014 RMK A01 T00871055  RH  036%=      5-min Rain = 0
KPD2 111002Z 31009KT 09/M06 A3014 RMK A01 T00871055  RH  036%=      5-min Rain = 0
KPD2 111003Z 32011G16KT 09/M06 A3014 RMK A01 T00871056  RH  036%=      5-min Rain = 0
KPD2 111004Z 31010KT 09/M06 A3014 RMK A01 T00871056  RH  036%=      5-min Rain = 0
KPD2 111005Z 32009G14KT 09/M06 A3015 RMK A01 T00861056  RH  036%=      5-min Rain = 0
KPD2 111006Z 32011G16KT 09/M06 A3015 RMK A01 T00861057  RH  036%=      5-min Rain = 0
KPD2 111007Z 31011KT 09/M06 A3015 RMK A01 T00861058  RH  036%=      5-min Rain = 0
KPD2 111008Z 30011G16KT 09/M06 A3014 RMK A01 T00861058  RH  036%=      5-min Rain = 0
KPD2 111009Z 32011KT 09/M06 A3015 RMK A01 T00861058  RH  036%=      5-min Rain = 0
KPD2 111010Z 33007G13KT 09/M06 A3015 RMK A01 T00851059  RH  035%=      5-min Rain = 0
KPD2 111011Z 32009KT 09/M06 A3015 RMK A01 T00851060  RH  035%=      5-min Rain = 0
KPD2 111012Z 33010KT 08/M06 A3015 RMK A01 T00841060  RH  035%=      5-min Rain = 0
KPD2 111013Z 31008KT 08/M06 A3015 RMK A01 T00841060  RH  035%=      5-min Rain = 0
KPD2 111014Z 31011G16KT 08/M06 A3015 RMK A01 T00841060  RH  036%=      5-min Rain = 0
KPD2 111015Z 31010KT 08/M06 A3015 RMK A01 T00841060  RH  035%=      5-min Rain = 0
KPD2 111016Z 33011KT 08/M06 A3015 RMK A01 T00841060  RH  035%=      5-min Rain = 0
KPD2 111017Z 33012KT 08/M06 A3015 RMK A01 T00841061  RH  035%=      5-min Rain = 0
KPD2 111018Z 32011KT 08/M06 A3015 RMK A01 T00841061  RH  035%=      5-min Rain = 0
KPD2 111019Z 32011KT 08/M06 A3015 RMK A01 T00831061  RH  035%=      5-min Rain = 0
KPD2 111020Z 34007KT 08/M06 A3015 RMK A01 T00831061  RH  035%=      5-min Rain = 0
KPD2 111021Z 32009KT 08/M06 A3015 RMK A01 T00831061  RH  035%=      5-min Rain = 0
KPD2 111022Z 33011KT 08/M06 A3015 RMK A01 T00831062  RH  035%=      5-min Rain = 0
KPD2 111023Z 33010G17KT 08/M06 A3015 RMK A01 T00821062  RH  035%=      5-min Rain = 0
KPD2 111024Z 33013KT 08/M06 A3015 RMK A01 T00821063  RH  035%=      5-min Rain = 0
KPD2 111025Z 31011G17KT 08/M06 A3015 RMK A01 T00821063  RH  035%=      5-min Rain = 0
KPD2 111026Z 32011G16KT 08/M06 A3015 RMK A01 T00821063  RH  035%=      5-min Rain = 0
KPD2 111027Z 33012KT 08/M06 A3015 RMK A01 T00811063  RH  035%=      5-min Rain = 0
KPD2 111028Z 31008G13KT 08/M06 A3015 RMK A01 T00811064  RH  035%=      5-min Rain = 0
KPD2 111029Z 33011KT 08/M06 A3015 RMK A01 T00811064  RH  035%=      5-min Rain = 0
KPD2 111030Z 32011KT 08/M06 A3015 RMK A01 T00801064  RH  035%=      5-min Rain = 0
KPD2 111031Z 32008KT 08/M06 A3016 RMK A01 T00801064  RH  035%=      5-min Rain = 0
KPD2 111032Z 33012G17KT 08/M06 A3015 RMK A01 T00801064  RH  035%=      5-min Rain = 0
KPD2 111033Z 32012G17KT 08/M07 A3015 RMK A01 T00791065  RH  035%=      5-min Rain = 0
KPD2 111034Z 34012KT 08/M07 A3016 RMK A01 T00791065  RH  035%=      5-min Rain = 0
KPD2 111035Z 34008KT 08/M07 A3016 RMK A01 T00781066  RH  035%=      5-min Rain = 0
KPD2 111036Z 32010G18KT 08/M07 A3016 RMK A01 T00781066  RH  035%=      5-min Rain = 0
KPD2 111037Z 33012KT 08/M07 A3016 RMK A01 T00781066  RH  035%=      5-min Rain = 0
KPD2 111038Z 33010KT 08/M07 A3016 RMK A01 T00771066  RH  035%=      5-min Rain = 0
KPD2 111039Z 35010G17KT 08/M07 A3016 RMK A01 T00771066  RH  036%=      5-min Rain = 0
KPD2 111040Z 33009KT 08/M07 A3016 RMK A01 T00771066  RH  036%=      5-min Rain = 0
KPD2 111041Z 31008KT 08/M07 A3016 RMK A01 T00761067  RH  036%=      5-min Rain = 0
KPD2 111042Z 30006G11KT 08/M07 A3017 RMK A01 T00761066  RH  036%=      5-min Rain = 0
KPD2 111043Z 30006G11KT 08/M07 A3017 RMK A01 T00761066  RH  036%=      5-min Rain = 0
KPD2 111044Z 33011G16KT 08/M07 A3017 RMK A01 T00761066  RH  036%=      5-min Rain = 0
KPD2 111045Z 33012KT 08/M07 A3017 RMK A01 T00751067  RH  036%=      5-min Rain = 0
KPD2 111046Z 31007KT 08/M07 A3017 RMK A01 T00751067  RH  036%=      5-min Rain = 0
KPD2 111047Z 30007KT 07/M07 A3017 RMK A01 T00741067  RH  036%=      5-min Rain = 0
KPD2 111048Z 31009KT 08/M07 A3017 RMK A01 T00751067  RH  036%=      5-min Rain = 0
KPD2 111049Z 32011G17KT 07/M07 A3017 RMK A01 T00741068  RH  036%=      5-min Rain = 0
KPD2 111050Z 33011G17KT 07/M07 A3017 RMK A01 T00741067  RH  036%=      5-min Rain = 0
KPD2 111051Z 32010KT 07/M07 A3017 RMK A01 T00731068  RH  036%=      5-min Rain = 0
KPD2 111052Z 31008KT 07/M07 A3017 RMK A01 T00731068  RH  036%=      5-min Rain = 0
KPD2 111053Z 33013KT 07/M07 A3017 RMK A01 T00731068  RH  036%=      5-min Rain = 0
KPD2 111054Z 33009KT 07/M07 A3017 RMK A01 T00731068  RH  036%=      5-min Rain = 0
KPD2 111055Z 32007KT 07/M07 A3017 RMK A01 T00721068  RH  036%=      5-min Rain = 0
KPD2 111056Z 31007KT 07/M07 A3017 RMK A01 T00721068  RH  036%=      5-min Rain = 0
KPD2 111057Z 29007KT 07/M07 A3017 RMK A01 T00711069  RH  036%=      5-min Rain = 0
KPD2 111058Z 30009KT 07/M07 A3017 RMK A01 T00711068  RH  036%=      5-min Rain = 0
KPD2 111059Z 32010G15KT 07/M07 A3017 RMK A01 T00711068  RH  036%=      5-min Rain = 0
KPD2 111100Z 31012G17KT 07/M07 A3018 RMK A01 T00701068  RH  036%=      5-min Rain = 0
KPD2 111101Z 31009KT 07/M07 A3018 RMK A01 T00701069  RH  037%=      5-min Rain = 0
KPD2 111102Z 30008KT 07/M07 A3018 RMK A01 T00701069  RH  037%=      5-min Rain = 0
KPD2 111103Z 33012KT 07/M07 A3018 RMK A01 T00701069  RH  037%=      5-min Rain = 0
KPD2 111104Z 32012KT 07/M07 A3018 RMK A01 T00691069  RH  037%=      5-min Rain = 0
KPD2 111105Z 33012KT 07/M07 A3018 RMK A01 T00691068  RH  037%=      5-min Rain = 0
KPD2 111106Z 33014G22KT 07/M07 A3018 RMK A01 T00691068  RH  037%=      5-min Rain = 0
KPD2 111107Z 31012G20KT 07/M07 A3018 RMK A01 T00691068  RH  037%=      5-min Rain = 0
KPD2 111108Z 32011KT 07/M07 A3018 RMK A01 T00681068  RH  037%=      5-min Rain = 0
KPD2 111109Z 29007KT 07/M07 A3018 RMK A01 T00681068  RH  037%=      5-min Rain = 0
KPD2 111110Z 33013G19KT 07/M07 A3018 RMK A01 T00681069  RH  037%=      5-min Rain = 0
KPD2 111111Z 31009KT 07/M07 A3018 RMK A01 T00671068  RH  037%=      5-min Rain = 0
KPD2 111112Z 32009KT 07/M07 A3018 RMK A01 T00671068  RH  037%=      5-min Rain = 0
KPD2 111113Z 31006KT 07/M07 A3018 RMK A01 T00661068  RH  038%=      5-min Rain = 0
KPD2 111114Z 30007G13KT 07/M07 A3018 RMK A01 T00661068  RH  038%=      5-min Rain = 0
KPD2 111115Z 30008G13KT 07/M07 A3018 RMK A01 T00661068  RH  038%=      5-min Rain = 0
KPD2 111116Z 29009KT 07/M07 A3018 RMK A01 T00661068  RH  038%=      5-min Rain = 0
KPD2 111117Z 30012G17KT 07/M07 A3019 RMK A01 T00661068  RH  038%=      5-min Rain = 0
KPD2 111118Z 31009KT 07/M07 A3019 RMK A01 T00661068  RH  038%=      5-min Rain = 0
KPD2 111119Z 32009KT 07/M07 A3019 RMK A01 T00651068  RH  038%=      5-min Rain = 0
KPD2 111120Z 31008KT 06/M07 A3019 RMK A01 T00641068  RH  038%=      5-min Rain = 0
KPD2 111121Z 31007G13KT 06/M07 A3019 RMK A01 T00641067  RH  038%=      5-min Rain = 0
KPD2 111122Z 30007G12KT 06/M07 A3019 RMK A01 T00641068  RH  038%=      5-min Rain = 0
KPD2 111123Z 28009KT 06/M07 A3019 RMK A01 T00641067  RH  039%=      5-min Rain = 0
KPD2 111124Z 30009KT 06/M07 A3019 RMK A01 T00641067  RH  039%=      5-min Rain = 0
KPD2 111125Z 30008KT 06/M07 A3019 RMK A01 T00641067  RH  039%=      5-min Rain = 0
KPD2 111126Z 29008KT 06/M07 A3019 RMK A01 T00641066  RH  039%=      5-min Rain = 0
KPD2 111127Z 30009KT 06/M07 A3019 RMK A01 T00641066  RH  039%=      5-min Rain = 0
KPD2 111128Z 32007KT 06/M07 A3019 RMK A01 T00641066  RH  039%=      5-min Rain = 0
KPD2 111129Z 31007KT 06/M07 A3019 RMK A01 T00631066  RH  039%=      5-min Rain = 0
KPD2 111130Z 30008KT 06/M07 A302 RMK A01 T00631066  RH  039%=      5-min Rain = 0
KPD2 111131Z 31011KT 06/M07 A302 RMK A01 T00631066  RH  039%=      5-min Rain = 0
KPD2 111132Z 33008KT 06/M07 A302 RMK A01 T00631066  RH  039%=      5-min Rain = 0
KPD2 111133Z 30007KT 06/M07 A302 RMK A01 T00621066  RH  039%=      5-min Rain = 0
KPD2 111134Z 31008KT 06/M07 A302 RMK A01 T00621066  RH  039%=      5-min Rain = 0
KPD2 111135Z 28005KT 06/M07 A302 RMK A01 T00621065  RH  040%=      5-min Rain = 0
KPD2 111136Z 30005KT 06/M07 A302 RMK A01 T00621066  RH  040%=      5-min Rain = 0
KPD2 111137Z 30008KT 06/M07 A3021 RMK A01 T00621065  RH  040%=      5-min Rain = 0
KPD2 111138Z 32009KT 06/M07 A3021 RMK A01 T00611065  RH  040%=      5-min Rain = 0
KPD2 111139Z 31008KT 06/M06 A302 RMK A01 T00611064  RH  040%=      5-min Rain = 0
KPD2 111140Z 31010G15KT 06/M06 A302 RMK A01 T00611064  RH  040%=      5-min Rain = 0
KPD2 111141Z 32009G17KT 06/M06 A3021 RMK A01 T00611063  RH  041%=      5-min Rain = 0
KPD2 111142Z 33008G13KT 06/M06 A3021 RMK A01 T00601063  RH  041%=      5-min Rain = 0
KPD2 111143Z 29006KT 06/M06 A3021 RMK A01 T00601063  RH  041%=      5-min Rain = 0
KPD2 111144Z 30009KT 06/M06 A3021 RMK A01 T00601063  RH  041%=      5-min Rain = 0
KPD2 111145Z 29007KT 06/M06 A302 RMK A01 T00591063  RH  041%=      5-min Rain = 0
KPD2 111146Z 28008KT 06/M06 A302 RMK A01 T00591063  RH  041%=      5-min Rain = 0
KPD2 111147Z 27007KT 06/M06 A3021 RMK A01 T00591064  RH  041%=      5-min Rain = 0
KPD2 111148Z 29007KT 06/M06 A3021 RMK A01 T00581064  RH  041%=      5-min Rain = 0
KPD2 111149Z 30006KT 06/M06 A3021 RMK A01 T00581063  RH  041%=      5-min Rain = 0
KPD2 111150Z 29006KT 06/M06 A3021 RMK A01 T00581064  RH  041%=      5-min Rain = 0
KPD2 111151Z 26006KT 06/M06 A3021 RMK A01 T00571064  RH  042%=      5-min Rain = 0
KPD2 111152Z 30005KT 06/M06 A3021 RMK A01 T00561063  RH  042%=      5-min Rain = 0
KPD2 111153Z 33008KT 06/M06 A3021 RMK A01 T00561063  RH  042%=      5-min Rain = 0
KPD2 111154Z 31008KT 06/M06 A3021 RMK A01 T00551061  RH  043%=      5-min Rain = 0
KPD2 111155Z 29006KT 06/M06 A3021 RMK A01 T00551060  RH  043%=      5-min Rain = 0
KPD2 111156Z 31006KT 06/M06 A3021 RMK A01 T00561059  RH  043%=      5-min Rain = 0
KPD2 111157Z 29005KT 06/M06 A3021 RMK A01 T00561059  RH  044%=      5-min Rain = 0
KPD2 111158Z 31007KT 06/M06 A3021 RMK A01 T00551059  RH  044%=      5-min Rain = 0
KPD2 111159Z 32007KT 06/M06 A3021 RMK A01 T00551058  RH  044%=      5-min Rain = 0
KPD2 111200Z 30008KT 05/M06 A3021 RMK A01 T00541058  RH  044%=      5-min Rain = 0
KPD2 111201Z 31006KT 05/M06 A3022 RMK A01 T00541058  RH  045%=      5-min Rain = 0
KPD2 111202Z 28005KT 05/M06 A3022 RMK A01 T00531058  RH  045%=      5-min Rain = 0
KPD2 111203Z 29005G11KT 05/M06 A3022 RMK A01 T00531057  RH  045%=      5-min Rain = 0
KPD2 111204Z 32010KT 05/M06 A3022 RMK A01 T00531058  RH  045%=      5-min Rain = 0
KPD2 111205Z 30007KT 05/M06 A3022 RMK A01 T00531057  RH  045%=      5-min Rain = 0
KPD2 111206Z 27006KT 05/M06 A3021 RMK A01 T00521057  RH  045%=      5-min Rain = 0
KPD2 111207Z 31009KT 05/M06 A3022 RMK A01 T00521057  RH  045%=      5-min Rain = 0
KPD2 111208Z 29007KT 05/M06 A3022 RMK A01 T00521056  RH  046%=      5-min Rain = 0
KPD2 111209Z 30006KT 05/M06 A3022 RMK A01 T00521055  RH  046%=      5-min Rain = 0
KPD2 111210Z 29006KT 05/M05 A3022 RMK A01 T00521054  RH  046%=      5-min Rain = 0
KPD2 111211Z 30007G12KT 05/M06 A3022 RMK A01 T00521055  RH  046%=      5-min Rain = 0
KPD2 111212Z 29006KT 05/M05 A3022 RMK A01 T00511054  RH  046%=      5-min Rain = 0
KPD2 111213Z 31007KT 05/M05 A3022 RMK A01 T00511054  RH  046%=      5-min Rain = 0
KPD2 111214Z 26004KT 05/M06 A3022 RMK A01 T00511055  RH  046%=      5-min Rain = 0
KPD2 111215Z 27003KT 05/M06 A3022 RMK A01 T00501055  RH  046%=      5-min Rain = 0
KPD2 111216Z 30003KT 05/M06 A3022 RMK A01 T00501055  RH  047%=      5-min Rain = 0
KPD2 111217Z 32005KT 05/M05 A3022 RMK A01 T00501054  RH  047%=      5-min Rain = 0
KPD2 111218Z 30005KT 05/M05 A3023 RMK A01 T00491053  RH  048%=      5-min Rain = 0
KPD2 111219Z 29005KT 05/M05 A3023 RMK A01 T00481052  RH  048%=      5-min Rain = 0
KPD2 111220Z 28006KT 05/M05 A3023 RMK A01 T00481051  RH  048%=      5-min Rain = 0
KPD2 111221Z 31006KT 05/M05 A3023 RMK A01 T00481051  RH  049%=      5-min Rain = 0
KPD2 111222Z 30006KT 05/M05 A3023 RMK A01 T00481051  RH  049%=      5-min Rain = 0
KPD2 111223Z 30007KT 05/M05 A3023 RMK A01 T00481050  RH  049%=      5-min Rain = 0
KPD2 111224Z 31006KT 05/M05 A3023 RMK A01 T00481049  RH  049%=      5-min Rain = 0
KPD2 111225Z 28004KT 05/M05 A3024 RMK A01 T00481049  RH  049%=      5-min Rain = 0
KPD2 111226Z 30004KT 05/M05 A3024 RMK A01 T00481050  RH  049%=      5-min Rain = 0
KPD2 111227Z 29007G12KT 05/M05 A3024 RMK A01 T00481050  RH  049%=      5-min Rain = 0
KPD2 111228Z 32006KT 05/M05 A3024 RMK A01 T00481050  RH  049%=      5-min Rain = 0
KPD2 111229Z 29003KT 05/M05 A3024 RMK A01 T00481049  RH  049%=      5-min Rain = 0
KPD2 111230Z 29006KT 05/M05 A3023 RMK A01 T00481048  RH  050%=      5-min Rain = 0
KPD2 111231Z 28005KT 05/M05 A3023 RMK A01 T00481048  RH  050%=      5-min Rain = 0
KPD2 111232Z 30005KT 05/M05 A3024 RMK A01 T00481048  RH  050%=      5-min Rain = 0
KPD2 111233Z 31005KT 05/M05 A3024 RMK A01 T00471049  RH  050%=      5-min Rain = 0
KPD2 111234Z 33006KT 05/M05 A3024 RMK A01 T00471049  RH  050%=      5-min Rain = 0
KPD2 111235Z 34004KT 05/M05 A3024 RMK A01 T00461049  RH  050%=      5-min Rain = 0
KPD2 111236Z 31003KT 05/M05 A3024 RMK A01 T00451049  RH  050%=      5-min Rain = 0
KPD2 111237Z 32005KT 05/M05 A3024 RMK A01 T00451048  RH  051%=      5-min Rain = 0
KPD2 111238Z 33005KT 05/M05 A3024 RMK A01 T00451048  RH  051%=      5-min Rain = 0
KPD2 111239Z 28004KT 04/M05 A3024 RMK A01 T00441049  RH  051%=      5-min Rain = 0
KPD2 111240Z 29007KT 04/M05 A3024 RMK A01 T00441048  RH  051%=      5-min Rain = 0
KPD2 111241Z 31006KT 05/M05 A3024 RMK A01 T00451048  RH  051%=      5-min Rain = 0
KPD2 111242Z 32006KT 05/M05 A3024 RMK A01 T00451049  RH  051%=      5-min Rain = 0
KPD2 111243Z 33005KT 05/M05 A3024 RMK A01 T00451048  RH  051%=      5-min Rain = 0
KPD2 111244Z 35005KT 04/M05 A3025 RMK A01 T00441049  RH  051%=      5-min Rain = 0
KPD2 111245Z 32005KT 04/M05 A3025 RMK A01 T00441048  RH  051%=      5-min Rain = 0
KPD2 111246Z 34005KT 04/M05 A3025 RMK A01 T00431048  RH  052%=      5-min Rain = 0
KPD2 111247Z 35006KT 04/M05 A3025 RMK A01 T00431048  RH  052%=      5-min Rain = 0
KPD2 111248Z 32004KT 04/M05 A3025 RMK A01 T00421048  RH  052%=      5-min Rain = 0
KPD2 111249Z 31004KT 04/M05 A3025 RMK A01 T00421048  RH  052%=      5-min Rain = 0
KPD2 111250Z 29003KT 04/M05 A3025 RMK A01 T00421049  RH  051%=      5-min Rain = 0
KPD2 111251Z 29004KT 04/M05 A3025 RMK A01 T00421051  RH  051%=      5-min Rain = 0
KPD2 111252Z 30004KT 04/M05 A3025 RMK A01 T00411052  RH  051%=      5-min Rain = 0
KPD2 111253Z 30004KT 04/M05 A3025 RMK A01 T00401053  RH  051%=      5-min Rain = 0
KPD2 111254Z 29006KT 04/M05 A3025 RMK A01 T00391053  RH  051%=      5-min Rain = 0
KPD2 111255Z 30006KT 04/M05 A3026 RMK A01 T00391053  RH  051%=      5-min Rain = 0
KPD2 111256Z 31005KT 04/M05 A3026 RMK A01 T00401052  RH  051%=      5-min Rain = 0
KPD2 111257Z 31004KT 04/M05 A3026 RMK A01 T00401053  RH  051%=      5-min Rain = 0
KPD2 111258Z 30005KT 04/M05 A3026 RMK A01 T00391053  RH  051%=      5-min Rain = 0
KPD2 111259Z 31007KT 04/M05 A3025 RMK A01 T00381052  RH  052%=      5-min Rain = 0
KPD2 111300Z 31006KT 04/M05 A3025 RMK A01 T00381050  RH  053%=      5-min Rain = 0
KPD2 111301Z 33005KT 04/M05 A3025 RMK A01 T00381050  RH  053%=      5-min Rain = 0
KPD2 111302Z 30004KT 04/M05 A3025 RMK A01 T00371050  RH  053%=      5-min Rain = 0
KPD2 111303Z 30004KT 04/M05 A3025 RMK A01 T00371049  RH  053%=      5-min Rain = 0
KPD2 111304Z 32004KT 04/M05 A3025 RMK A01 T00371049  RH  053%=      5-min Rain = 0
KPD2 111305Z 32006KT 04/M05 A3025 RMK A01 T00381049  RH  053%=      5-min Rain = 0
KPD2 111306Z 30004KT 04/M05 A3025 RMK A01 T00371049  RH  054%=      5-min Rain = 0
KPD2 111307Z 27002KT 04/M05 A3025 RMK A01 T00371048  RH  054%=      5-min Rain = 0
KPD2 111308Z 28004KT 04/M05 A3026 RMK A01 T00371048  RH  054%=      5-min Rain = 0
KPD2 111309Z 29004KT 04/M05 A3026 RMK A01 T00371049  RH  054%=      5-min Rain = 0
KPD2 111310Z 31006KT 04/M05 A3026 RMK A01 T00361050  RH  054%=      5-min Rain = 0
KPD2 111311Z 32005KT 04/M05 A3026 RMK A01 T00351049  RH  054%=      5-min Rain = 0
KPD2 111312Z 31005KT 04/M05 A3026 RMK A01 T00351050  RH  054%=      5-min Rain = 0
KPD2 111313Z 31004KT 04/M05 A3026 RMK A01 T00351050  RH  054%=      5-min Rain = 0
KPD2 111314Z 30005KT 04/M05 A3026 RMK A01 T00351050  RH  054%=      5-min Rain = 0
KPD2 111315Z 31006KT 03/M05 A3026 RMK A01 T00341050  RH  054%=      5-min Rain = 0
KPD2 111316Z 31005KT 03/M05 A3026 RMK A01 T00341051  RH  054%=      5-min Rain = 0
KPD2 111317Z 30006KT 03/M05 A3026 RMK A01 T00341050  RH  054%=      5-min Rain = 0
KPD2 111318Z 31006KT 03/M05 A3026 RMK A01 T00341051  RH  054%=      5-min Rain = 0
KPD2 111319Z 30007KT 03/M05 A3027 RMK A01 T00331050  RH  054%=      5-min Rain = 0
KPD2 111320Z 30005KT 03/M05 A3027 RMK A01 T00331051  RH  054%=      5-min Rain = 0
KPD2 111321Z 31006KT 03/M05 A3027 RMK A01 T00331051  RH  054%=      5-min Rain = 0
KPD2 111322Z 30004KT 03/M05 A3027 RMK A01 T00341051  RH  054%=      5-min Rain = 0
KPD2 111323Z 29005KT 03/M05 A3027 RMK A01 T00341051  RH  054%=      5-min Rain = 0
KPD2 111324Z 30005KT 03/M05 A3027 RMK A01 T00341051  RH  054%=      5-min Rain = 0
KPD2 111325Z 30006KT 03/M05 A3027 RMK A01 T00331052  RH  054%=      5-min Rain = 0
KPD2 111326Z 31007KT 03/M05 A3027 RMK A01 T00331052  RH  054%=      5-min Rain = 0
KPD2 111327Z 31008KT 03/M05 A3027 RMK A01 T00331052  RH  054%=      5-min Rain = 0
KPD2 111328Z 30008KT 03/M05 A3027 RMK A01 T00331052  RH  054%=      5-min Rain = 0
KPD2 111329Z 29006KT 03/M05 A3027 RMK A01 T00331052  RH  054%=      5-min Rain = 0
KPD2 111330Z 30006KT 03/M05 A3027 RMK A01 T00331052  RH  054%=      5-min Rain = 0
KPD2 111331Z 30008KT 03/M05 A3027 RMK A01 T00331052  RH  054%=      5-min Rain = 0
KPD2 111332Z 31007KT 03/M05 A3027 RMK A01 T00331052  RH  054%=      5-min Rain = 0
KPD2 111333Z 30006KT 03/M05 A3027 RMK A01 T00331052  RH  054%=      5-min Rain = 0
KPD2 111334Z 31006KT 03/M05 A3027 RMK A01 T00331052  RH  054%=      5-min Rain = 0
KPD2 111335Z 31006KT 03/M05 A3027 RMK A01 T00321052  RH  054%=      5-min Rain = 0
KPD2 111336Z 29006KT 03/M05 A3027 RMK A01 T00331052  RH  054%=      5-min Rain = 0
KPD2 111337Z 30005KT 03/M05 A3027 RMK A01 T00321052  RH  054%=      5-min Rain = 0
KPD2 111338Z 29007KT 03/M05 A3027 RMK A01 T00331052  RH  054%=      5-min Rain = 0
KPD2 111339Z 30008KT 03/M05 A3027 RMK A01 T00331051  RH  054%=      5-min Rain = 0
KPD2 111340Z 29006KT 03/M05 A3027 RMK A01 T00331051  RH  054%=      5-min Rain = 0
KPD2 111341Z 30005KT 03/M05 A3028 RMK A01 T00331051  RH  054%=      5-min Rain = 0
KPD2 111342Z 30007KT 03/M05 A3028 RMK A01 T00331052  RH  054%=      5-min Rain = 0
KPD2 111343Z 30007KT 03/M05 A3028 RMK A01 T00331051  RH  054%=      5-min Rain = 0
KPD2 111344Z 30007KT 03/M05 A3028 RMK A01 T00341051  RH  054%=      5-min Rain = 0
KPD2 111345Z 30006KT 03/M05 A3028 RMK A01 T00341051  RH  054%=      5-min Rain = 0
KPD2 111346Z 29007KT 03/M05 A3028 RMK A01 T00341051  RH  054%=      5-min Rain = 0
KPD2 111347Z 29005KT 03/M05 A3028 RMK A01 T00341051  RH  054%=      5-min Rain = 0
KPD2 111348Z 31005KT 04/M05 A3028 RMK A01 T00351051  RH  054%=      5-min Rain = 0
KPD2 111349Z 30005KT 04/M05 A3028 RMK A01 T00351051  RH  053%=      5-min Rain = 0
KPD2 111350Z 31005KT 04/M05 A3028 RMK A01 T00351051  RH  053%=      5-min Rain = 0
KPD2 111351Z 29007KT 04/M05 A3028 RMK A01 T00351051  RH  053%=      5-min Rain = 0
KPD2 111352Z 30007KT 04/M05 A3028 RMK A01 T00351051  RH  053%=      5-min Rain = 0
KPD2 111353Z 32006KT 04/M05 A3028 RMK A01 T00351051  RH  053%=      5-min Rain = 0
KPD2 111354Z 31005KT 04/M05 A3028 RMK A01 T00351051  RH  053%=      5-min Rain = 0
KPD2 111355Z 32006KT 04/M05 A3028 RMK A01 T00351051  RH  053%=      5-min Rain = 0
KPD2 111356Z 32006KT 04/M05 A3028 RMK A01 T00361051  RH  053%=      5-min Rain = 0
KPD2 111357Z 33006KT 04/M05 A3028 RMK A01 T00371051  RH  053%=      5-min Rain = 0
KPD2 111358Z 33004G9KT 04/M05 A3028 RMK A01 T00371051  RH  053%=      5-min Rain = 0
KPD2 111359Z 32006KT 04/M05 A3028 RMK A01 T00381051  RH  052%=      5-min Rain = 0
KPD2 111400Z 30006KT 04/M05 A3028 RMK A01 T00381051  RH  052%=      5-min Rain = 0
KPD2 111401Z 30005KT 04/M05 A3028 RMK A01 T00391050  RH  052%=      5-min Rain = 0
KPD2 111402Z 29007KT 04/M05 A3028 RMK A01 T00401050  RH  052%=      5-min Rain = 0
KPD2 111403Z 29006KT 04/M05 A3028 RMK A01 T00411050  RH  051%=      5-min Rain = 0
KPD2 111404Z 30007KT 04/M05 A3028 RMK A01 T00411051  RH  051%=      5-min Rain = 0
KPD2 111405Z 32009KT 04/M05 A3028 RMK A01 T00411051  RH  051%=      5-min Rain = 0
KPD2 111406Z 32007KT 04/M05 A3028 RMK A01 T00411051  RH  051%=      5-min Rain = 0
KPD2 111407Z 31007G12KT 04/M05 A3028 RMK A01 T00421051  RH  051%=      5-min Rain = 0
KPD2 111408Z 31008KT 04/M05 A3028 RMK A01 T00421051  RH  051%=      5-min Rain = 0
KPD2 111409Z 32007KT 04/M05 A3028 RMK A01 T00431050  RH  051%=      5-min Rain = 0
KPD2 111410Z 31005KT 04/M05 A3029 RMK A01 T00441050  RH  051%=      5-min Rain = 0
KPD2 111411Z 30006KT 05/M05 A3029 RMK A01 T00451050  RH  050%=      5-min Rain = 0
KPD2 111412Z 31008KT 05/M05 A3029 RMK A01 T00451050  RH  050%=      5-min Rain = 0
KPD2 111413Z 31007G12KT 05/M05 A3029 RMK A01 T00451050  RH  050%=      5-min Rain = 0
KPD2 111414Z 33011KT 04/M05 A3029 RMK A01 T00441050  RH  050%=      5-min Rain = 0
KPD2 111415Z 31010KT 05/M05 A3029 RMK A01 T00451049  RH  051%=      5-min Rain = 0
KPD2 111416Z 33010G15KT 04/M05 A3029 RMK A01 T00441049  RH  051%=      5-min Rain = 0
KPD2 111417Z 32013KT 04/M05 A3029 RMK A01 T00441049  RH  051%=      5-min Rain = 0
KPD2 111418Z 33013KT 04/M05 A3029 RMK A01 T00431049  RH  051%=      5-min Rain = 0
KPD2 111419Z 32010KT 04/M05 A3029 RMK A01 T00421049  RH  051%=      5-min Rain = 0
KPD2 111420Z 33011G17KT 04/M05 A3029 RMK A01 T00421049  RH  052%=      5-min Rain = 0
KPD2 111421Z 33010KT 04/M05 A3029 RMK A01 T00421049  RH  052%=      5-min Rain = 0
KPD2 111422Z 33010KT 04/M05 A3029 RMK A01 T00411050  RH  052%=      5-min Rain = 0
KPD2 111423Z 35009KT 04/M05 A3029 RMK A01 T00411050  RH  052%=      5-min Rain = 0
KPD2 111424Z 35006KT 04/M05 A3029 RMK A01 T00411050  RH  052%=      5-min Rain = 0
KPD2 111425Z 35006KT 04/M05 A3029 RMK A01 T00411049  RH  052%=      5-min Rain = 0
KPD2 111426Z 34010KT 04/M05 A3029 RMK A01 T00421049  RH  051%=      5-min Rain = 0
KPD2 111427Z 33014G19KT 04/M05 A3029 RMK A01 T00431050  RH  051%=      5-min Rain = 0
KPD2 111428Z 34013KT 04/M05 A3029 RMK A01 T00431051  RH  050%=      5-min Rain = 0
KPD2 111429Z 35013KT 04/M05 A3029 RMK A01 T00431051  RH  050%=      5-min Rain = 0
KPD2 111430Z 35015G20KT 04/M05 A3029 RMK A01 T00431051  RH  050%=      5-min Rain = 0
KPD2 111431Z 34012G17KT 04/M05 A3029 RMK A01 T00431052  RH  050%=      5-min Rain = 0
KPD2 111432Z 33010KT 04/M05 A3029 RMK A01 T00441051  RH  050%=      5-min Rain = 0
KPD2 111433Z 34010KT 05/M05 A3029 RMK A01 T00461051  RH  050%=      5-min Rain = 0
KPD2 111434Z 35009KT 05/M05 A3029 RMK A01 T00461051  RH  049%=      5-min Rain = 0
KPD2 111435Z 33006KT 05/M05 A3029 RMK A01 T00471051  RH  049%=      5-min Rain = 0
KPD2 111436Z 32007KT 05/M05 A3029 RMK A01 T00491050  RH  049%=      5-min Rain = 0
KPD2 111437Z 32009KT 05/M05 A3029 RMK A01 T00511050  RH  048%=      5-min Rain = 0
KPD2 111438Z 31011KT 05/M05 A3029 RMK A01 T00521051  RH  048%=      5-min Rain = 0
KPD2 111439Z 33010KT 05/M05 A3029 RMK A01 T00521052  RH  047%=      5-min Rain = 0
KPD2 111440Z 35007KT 05/M05 A3029 RMK A01 T00501053  RH  047%=      5-min Rain = 0
KPD2 111441Z 33005KT 05/M05 A3029 RMK A01 T00501052  RH  048%=      5-min Rain = 0
KPD2 111442Z 33007KT 05/M05 A3029 RMK A01 T00511052  RH  048%=      5-min Rain = 0
KPD2 111443Z 32008G13KT 05/M05 A3029 RMK A01 T00511052  RH  047%=      5-min Rain = 0
KPD2 111444Z 33009KT 05/M05 A3029 RMK A01 T00501053  RH  047%=      5-min Rain = 0
KPD2 111445Z 34009KT 05/M05 A3029 RMK A01 T00491053  RH  047%=      5-min Rain = 0
KPD2 111446Z 32008G14KT 05/M05 A3029 RMK A01 T00491053  RH  048%=      5-min Rain = 0
KPD2 111447Z 34009G15KT 05/M05 A3029 RMK A01 T00481054  RH  048%=      5-min Rain = 0
KPD2 111448Z 34008KT 05/M05 A3029 RMK A01 T00481054  RH  048%=      5-min Rain = 0
KPD2 111449Z 30007KT 05/M05 A3029 RMK A01 T00471054  RH  048%=      5-min Rain = 0
KPD2 111450Z 32008G16KT 05/M05 A3029 RMK A01 T00481053  RH  048%=      5-min Rain = 0
KPD2 111451Z 32010KT 05/M05 A3029 RMK A01 T00481054  RH  048%=      5-min Rain = 0
KPD2 111452Z 31009KT 05/M05 A3029 RMK A01 T00481054  RH  047%=      5-min Rain = 0
KPD2 111453Z 32011KT 05/M05 A3029 RMK A01 T00481054  RH  047%=      5-min Rain = 0
KPD2 111454Z 34011KT 05/M05 A3029 RMK A01 T00501054  RH  047%=      5-min Rain = 0
KPD2 111455Z 33010KT 05/M05 A3029 RMK A01 T00521053  RH  047%=      5-min Rain = 0
KPD2 111456Z 33011KT 05/M05 A3029 RMK A01 T00531054  RH  046%=      5-min Rain = 0
KPD2 111457Z 35012G17KT 05/M05 A3029 RMK A01 T00531054  RH  046%=      5-min Rain = 0
KPD2 111458Z 34015G21KT 05/M06 A3029 RMK A01 T00531056  RH  045%=      5-min Rain = 0
KPD2 111459Z 34014KT 05/M06 A3029 RMK A01 T00511057  RH  045%=      5-min Rain = 0
KPD2 111500Z 35012KT 05/M06 A3029 RMK A01 T00511057  RH  046%=      5-min Rain = 0
KPD2 111501Z 35011KT 05/M06 A3029 RMK A01 T00511057  RH  046%=      5-min Rain = 0
KPD2 111502Z 34007G12KT 05/M06 A303 RMK A01 T00511057  RH  046%=      5-min Rain = 0
KPD2 111503Z 32009G17KT 05/M06 A3029 RMK A01 T00511057  RH  046%=      5-min Rain = 0
KPD2 111504Z 31009G14KT 05/M06 A3029 RMK A01 T00521056  RH  045%=      5-min Rain = 0
KPD2 111505Z 33013KT 05/M06 A3029 RMK A01 T00531058  RH  045%=      5-min Rain = 0
KPD2 111506Z 34012G17KT 05/M06 A303 RMK A01 T00541059  RH  044%=      5-min Rain = 0
KPD2 111507Z 34011G19KT 05/M06 A3029 RMK A01 T00541060  RH  044%=      5-min Rain = 0
KPD2 111508Z 33010KT 06/M06 A303 RMK A01 T00551059  RH  044%=      5-min Rain = 0
KPD2 111509Z 34012G19KT 06/M06 A303 RMK A01 T00571060  RH  043%=      5-min Rain = 0
KPD2 111510Z 32008KT 06/M06 A303 RMK A01 T00571061  RH  042%=      5-min Rain = 0
KPD2 111511Z 33010KT 06/M06 A303 RMK A01 T00581061  RH  042%=      5-min Rain = 0
KPD2 111512Z 35012G18KT 06/M06 A303 RMK A01 T00611060  RH  042%=      5-min Rain = 0
KPD2 111513Z 36011KT 06/M06 A303 RMK A01 T00631061  RH  041%=      5-min Rain = 0
KPD2 111514Z 00011KT 06/M06 A303 RMK A01 T00641061  RH  040%=      5-min Rain = 0
KPD2 111515Z 34009KT 07/M06 A303 RMK A01 T00651061  RH  040%=      5-min Rain = 0
KPD2 111516Z 34009G16KT 07/M06 A303 RMK A01 T00661063  RH  039%=      5-min Rain = 0
KPD2 111517Z 34009KT 07/M06 A303 RMK A01 T00651063  RH  039%=      5-min Rain = 0
KPD2 111518Z 32011G16KT 07/M06 A303 RMK A01 T00681061  RH  039%=      5-min Rain = 0
KPD2 111519Z 33012G18KT 07/M06 A303 RMK A01 T00701062  RH  038%=      5-min Rain = 0
KPD2 111520Z 33007G12KT 07/M06 A303 RMK A01 T00701063  RH  038%=      5-min Rain = 0
KPD2 111521Z 33010G15KT 07/M06 A303 RMK A01 T00701063  RH  038%=      5-min Rain = 0
KPD2 111522Z 33012G17KT 07/M06 A303 RMK A01 T00711063  RH  038%=      5-min Rain = 0
KPD2 111523Z 34010KT 07/M06 A303 RMK A01 T00721063  RH  038%=      5-min Rain = 0
KPD2 111524Z 33012G19KT 07/M06 A303 RMK A01 T00721063  RH  038%=      5-min Rain = 0
KPD2 111525Z 32016G21KT 07/M06 A303 RMK A01 T00731064  RH  037%=      5-min Rain = 0
KPD2 111526Z 34013KT 07/M07 A3031 RMK A01 T00691067  RH  037%=      5-min Rain = 0
KPD2 111527Z 34010G16KT 07/M07 A3031 RMK A01 T00671067  RH  038%=      5-min Rain = 0
KPD2 111528Z 36011G20KT 07/M07 A3031 RMK A01 T00671065  RH  038%=      5-min Rain = 0
KPD2 111529Z 35010KT 07/M07 A3031 RMK A01 T00681065  RH  038%=      5-min Rain = 0
KPD2 111530Z 32010G18KT 07/M06 A3031 RMK A01 T00681064  RH  038%=      5-min Rain = 0
KPD2 111531Z 34012KT 07/M06 A3031 RMK A01 T00681064  RH  038%=      5-min Rain = 0
KPD2 111532Z 33015KT 07/M07 A3031 RMK A01 T00671066  RH  038%=      5-min Rain = 0
KPD2 111533Z 34010KT 07/M07 A3031 RMK A01 T00671066  RH  038%=      5-min Rain = 0
KPD2 111534Z 33009KT 07/M07 A3031 RMK A01 T00671066  RH  038%=      5-min Rain = 0
KPD2 111535Z 33012KT 07/M07 A3031 RMK A01 T00661066  RH  038%=      5-min Rain = 0
KPD2 111536Z 34012KT 06/M07 A3031 RMK A01 T00641067  RH  039%=      5-min Rain = 0
KPD2 111537Z 32010KT 06/M07 A3031 RMK A01 T00641066  RH  039%=      5-min Rain = 0
KPD2 111538Z 33013G19KT 07/M07 A3031 RMK A01 T00661066  RH  039%=      5-min Rain = 0
KPD2 111539Z 33011G17KT 07/M07 A3031 RMK A01 T00661067  RH  038%=      5-min Rain = 0
KPD2 111540Z 34015KT 07/M07 A3031 RMK A01 T00661066  RH  038%=      5-min Rain = 0
KPD2 111541Z 34009KT 07/M06 A3031 RMK A01 T00691064  RH  038%=      5-min Rain = 0
KPD2 111542Z 32014G19KT 07/M06 A3031 RMK A01 T00731063  RH  038%=      5-min Rain = 0
KPD2 111543Z 32011G18KT 07/M06 A3031 RMK A01 T00741064  RH  037%=      5-min Rain = 0
KPD2 111544Z 34012KT 07/M06 A3031 RMK A01 T00741064  RH  037%=      5-min Rain = 0
KPD2 111545Z 34015G20KT 07/M07 A3031 RMK A01 T00741066  RH  036%=      5-min Rain = 0
KPD2 111546Z 35016G21KT 07/M07 A3031 RMK A01 T00741066  RH  036%=      5-min Rain = 0
KPD2 111547Z 35016G22KT 07/M07 A3031 RMK A01 T00731067  RH  036%=      5-min Rain = 0
KPD2 111548Z 34013G19KT 07/M07 A3031 RMK A01 T00741067  RH  036%=      5-min Rain = 0
KPD2 111549Z 35017KT 08/M07 A3031 RMK A01 T00751067  RH  036%=      5-min Rain = 0
KPD2 111550Z 34016G23KT 08/M07 A3031 RMK A01 T00761069  RH  035%=      5-min Rain = 0
KPD2 111551Z 34014G20KT 07/M07 A3031 RMK A01 T00741070  RH  035%=      5-min Rain = 0
KPD2 111552Z 35015KT 08/M07 A3031 RMK A01 T00751070  RH  035%=      5-min Rain = 0
KPD2 111553Z 36015G20KT 08/M07 A3031 RMK A01 T00761068  RH  035%=      5-min Rain = 0
KPD2 111554Z 35010G15KT 08/M07 A3031 RMK A01 T00761069  RH  035%=      5-min Rain = 0
KPD2 111555Z 34016G22KT 08/M07 A3031 RMK A01 T00771066  RH  036%=      5-min Rain = 0
KPD2 111556Z 34013G19KT 08/M07 A3031 RMK A01 T00781065  RH  035%=      5-min Rain = 0
KPD2 111557Z 35016KT 08/M07 A3031 RMK A01 T00791065  RH  035%=      5-min Rain = 0
KPD2 111558Z 01015KT 08/M07 A3031 RMK A01 T00791065  RH  035%=      5-min Rain = 0
KPD2 111559Z 00012G17KT 08/M06 A3031 RMK A01 T00791064  RH  036%=      5-min Rain = 0
KPD2 111600Z 31014G22KT 08/M06 A3031 RMK A01 T00821062  RH  035%=      5-min Rain = 0
KPD2 111601Z 32014G20KT 08/M06 A3031 RMK A01 T00821064  RH  035%=      5-min Rain = 0
KPD2 111602Z 34014KT 08/M07 A3031 RMK A01 T00811065  RH  035%=      5-min Rain = 0
KPD2 111603Z 35013G19KT 08/M07 A3031 RMK A01 T00791066  RH  035%=      5-min Rain = 0
KPD2 111604Z 35016KT 08/M07 A3032 RMK A01 T00811065  RH  035%=      5-min Rain = 0
KPD2 111605Z 36014KT 08/M07 A3032 RMK A01 T00801066  RH  035%=      5-min Rain = 0
KPD2 111606Z 33011KT 08/M06 A3032 RMK A01 T00821064  RH  035%=      5-min Rain = 0
KPD2 111607Z 33010KT 09/M06 A3031 RMK A01 T00851064  RH  034%=      5-min Rain = 0
KPD2 111608Z 33011G20KT 09/M07 A3031 RMK A01 T00851066  RH  034%=      5-min Rain = 0
KPD2 111609Z 35018G24KT 08/M07 A3032 RMK A01 T00841069  RH  033%=      5-min Rain = 0
KPD2 111610Z 33018G23KT 08/M07 A3031 RMK A01 T00821070  RH  033%=      5-min Rain = 0
KPD2 111611Z 34016G23KT 08/M07 A3032 RMK A01 T00791072  RH  034%=      5-min Rain = 0
KPD2 111612Z 35013G18KT 08/M07 A3032 RMK A01 T00781071  RH  034%=      5-min Rain = 0
KPD2 111613Z 01009G14KT 08/M07 A3031 RMK A01 T00771071  RH  034%=      5-min Rain = 0
KPD2 111614Z 35007G16KT 08/M07 A3032 RMK A01 T00771070  RH  035%=      5-min Rain = 0
KPD2 111615Z 00007G15KT 08/M07 A3032 RMK A01 T00771069  RH  035%=      5-min Rain = 0
KPD2 111616Z 34005KT 08/M07 A3032 RMK A01 T00781069  RH  035%=      5-min Rain = 0
KPD2 111617Z 34011G22KT 08/M07 A3032 RMK A01 T00801068  RH  034%=      5-min Rain = 0
KPD2 111618Z 35014G19KT 08/M07 A3032 RMK A01 T00791069  RH  034%=      5-min Rain = 0
KPD2 111619Z 34013G19KT 08/M07 A3032 RMK A01 T00771071  RH  034%=      5-min Rain = 0
KPD2 111620Z 34013G22KT 08/M07 A3032 RMK A01 T00751071  RH  035%=      5-min Rain = 0
KPD2 111621Z 34016G22KT 08/M07 A3032 RMK A01 T00761071  RH  034%=      5-min Rain = 0
KPD2 111622Z 34014G21KT 08/M07 A3032 RMK A01 T00771072  RH  034%=      5-min Rain = 0
KPD2 111623Z 34015KT 08/M07 A3032 RMK A01 T00771073  RH  034%=      5-min Rain = 0
KPD2 111624Z 34012KT 08/M07 A3032 RMK A01 T00771073  RH  034%=      5-min Rain = 0
KPD2 111625Z 35014KT 08/M07 A3032 RMK A01 T00781072  RH  034%=      5-min Rain = 0
KPD2 111626Z 34011KT 08/M07 A3032 RMK A01 T00781073  RH  033%=      5-min Rain = 0
KPD2 111627Z 35012KT 08/M07 A3032 RMK A01 T00791073  RH  033%=      5-min Rain = 0
KPD2 111628Z 33010KT 08/M07 A3032 RMK A01 T00801073  RH  033%=      5-min Rain = 0
KPD2 111629Z 34014G21KT 08/M07 A3032 RMK A01 T00821073  RH  032%=      5-min Rain = 0
KPD2 111630Z 35012G18KT 08/M07 A3032 RMK A01 T00831074  RH  032%=      5-min Rain = 0
KPD2 111631Z 01011KT 08/M08 A3032 RMK A01 T00831075  RH  032%=      5-min Rain = 0
KPD2 111632Z 03010KT 08/M08 A3033 RMK A01 T00831075  RH  032%=      5-min Rain = 0
KPD2 111633Z 34009KT 08/M08 A3033 RMK A01 T00821076  RH  032%=      5-min Rain = 0
KPD2 111634Z 33014G25KT 08/M08 A3033 RMK A01 T00831075  RH  032%=      5-min Rain = 0
KPD2 111635Z 34014G21KT 09/M08 A3033 RMK A01 T00851077  RH  031%=      5-min Rain = 0
KPD2 111636Z 35016G21KT 08/M08 A3033 RMK A01 T00841079  RH  031%=      5-min Rain = 0
KPD2 111637Z 34013G18KT 08/M08 A3033 RMK A01 T00841079  RH  031%=      5-min Rain = 0
KPD2 111638Z 01006KT 08/M08 A3033 RMK A01 T00841078  RH  031%=      5-min Rain = 0
KPD2 111639Z 35009KT 09/M08 A3033 RMK A01 T00851077  RH  031%=      5-min Rain = 0
KPD2 111640Z 34011G16KT 09/M08 A3032 RMK A01 T00871077  RH  031%=      5-min Rain = 0
KPD2 111641Z 33011G17KT 09/M08 A3032 RMK A01 T00871078  RH  030%=      5-min Rain = 0
KPD2 111642Z 34012KT 09/M08 A3032 RMK A01 T00871078  RH  030%=      5-min Rain = 0
KPD2 111643Z 35015KT 09/M08 A3032 RMK A01 T00891078  RH  030%=      5-min Rain = 0
KPD2 111644Z 33012KT 09/M08 A3032 RMK A01 T00881080  RH  030%=      5-min Rain = 0
KPD2 111645Z 35009G14KT 09/M08 A3032 RMK A01 T00861081  RH  030%=      5-min Rain = 0
KPD2 111646Z 35013KT 09/M08 A3032 RMK A01 T00871079  RH  030%=      5-min Rain = 0
KPD2 111647Z 34015KT 09/M08 A3032 RMK A01 T00871080  RH  030%=      5-min Rain = 0
KPD2 111648Z 34016KT 09/M08 A3032 RMK A01 T00861081  RH  030%=      5-min Rain = 0
KPD2 111649Z 34017KT 09/M08 A3032 RMK A01 T00851082  RH  030%=      5-min Rain = 0
KPD2 111650Z 35015KT 08/M08 A3032 RMK A01 T00841082  RH  030%=      5-min Rain = 0
KPD2 111651Z 35014KT 08/M08 A3032 RMK A01 T00831082  RH  030%=      5-min Rain = 0
KPD2 111652Z 36015KT 08/M08 A3032 RMK A01 T00841082  RH  030%=      5-min Rain = 0
KPD2 111653Z 34012KT 09/M08 A3032 RMK A01 T00851081  RH  030%=      5-min Rain = 0
KPD2 111654Z 34014G20KT 09/M08 A3032 RMK A01 T00861082  RH  030%=      5-min Rain = 0
KPD2 111655Z 35014G19KT 09/M08 A3032 RMK A01 T00861083  RH  029%=      5-min Rain = 0
KPD2 111656Z 35013G18KT 09/M08 A3032 RMK A01 T00861084  RH  029%=      5-min Rain = 0
KPD2 111657Z 35013KT 09/M08 A3032 RMK A01 T00861083  RH  029%=      5-min Rain = 0
KPD2 111658Z 00012KT 09/M08 A3032 RMK A01 T00861084  RH  029%=      5-min Rain = 0
KPD2 111659Z 35008G13KT 09/M08 A3032 RMK A01 T00881082  RH  029%=      5-min Rain = 0
KPD2 111700Z 34008KT 09/M08 A3032 RMK A01 T00911081  RH  029%=      5-min Rain = 0
KPD2 111701Z 35009KT 09/M08 A3032 RMK A01 T00931081  RH  028%=      5-min Rain = 0
KPD2 111702Z 33006KT 09/M08 A3032 RMK A01 T00931084  RH  028%=      5-min Rain = 0
KPD2 111703Z 32008G13KT 09/M08 A3032 RMK A01 T00931084  RH  028%=      5-min Rain = 0
KPD2 111704Z 34012KT 09/M09 A3032 RMK A01 T00921085  RH  028%=      5-min Rain = 0
KPD2 111705Z 34010KT 09/M08 A3032 RMK A01 T00931084  RH  028%=      5-min Rain = 0
KPD2 111706Z 33009KT 09/M09 A3032 RMK A01 T00931085  RH  028%=      5-min Rain = 0
KPD2 111707Z 33011KT 09/M09 A3032 RMK A01 T00921085  RH  028%=      5-min Rain = 0
KPD2 111708Z 33013G19KT 09/M09 A3032 RMK A01 T00921086  RH  028%=      5-min Rain = 0
KPD2 111709Z 33011G20KT 09/M09 A3032 RMK A01 T00911086  RH  028%=      5-min Rain = 0
KPD2 111710Z 34012KT 09/M09 A3032 RMK A01 T00901087  RH  028%=      5-min Rain = 0
KPD2 111711Z 34013KT 09/M09 A3032 RMK A01 T00911086  RH  028%=      5-min Rain = 0
KPD2 111712Z 34010KT 09/M09 A3032 RMK A01 T00921086  RH  028%=      5-min Rain = 0
KPD2 111713Z 34011KT 09/M09 A3032 RMK A01 T00921087  RH  027%=      5-min Rain = 0
KPD2 111714Z 34014G19KT 09/M09 A3032 RMK A01 T00931086  RH  028%=      5-min Rain = 0
KPD2 111715Z 34011G18KT 10/M08 A3032 RMK A01 T00991081  RH  027%=      5-min Rain = 0
KPD2 111716Z 34015KT 10/M08 A3032 RMK A01 T01031083  RH  026%=      5-min Rain = 0
KPD2 111717Z 34016G22KT 10/M08 A3032 RMK A01 T01041084  RH  026%=      5-min Rain = 0
KPD2 111718Z 35013KT 10/M09 A3032 RMK A01 T01041086  RH  025%=      5-min Rain = 0
KPD2 111719Z 35015G21KT 10/M09 A3033 RMK A01 T01021087  RH  026%=      5-min Rain = 0
KPD2 111720Z 35012G17KT 10/M09 A3032 RMK A01 T01001087  RH  026%=      5-min Rain = 0
KPD2 111721Z 00013G18KT 10/M09 A3032 RMK A01 T01021085  RH  026%=      5-min Rain = 0
KPD2 111722Z 35011KT 10/M09 A3032 RMK A01 T01011088  RH  026%=      5-min Rain = 0
KPD2 111723Z 34010KT 10/M09 A3032 RMK A01 T01031085  RH  026%=      5-min Rain = 0
KPD2 111724Z 35017KT 11/M08 A3032 RMK A01 T01061084  RH  025%=      5-min Rain = 0
KPD2 111725Z 34016G21KT 10/M09 A3032 RMK A01 T01041089  RH  025%=      5-min Rain = 0
KPD2 111726Z 35009G14KT 10/M09 A3032 RMK A01 T01001090  RH  025%=      5-min Rain = 0
KPD2 111727Z 34010KT 10/M09 A3032 RMK A01 T01041085  RH  026%=      5-min Rain = 0
KPD2 111728Z 32012G17KT 11/M09 A3032 RMK A01 T01071085  RH  025%=      5-min Rain = 0
KPD2 111729Z 34016KT 11/M09 A3032 RMK A01 T01071088  RH  025%=      5-min Rain = 0
KPD2 111730Z 33017KT 10/M09 A3032 RMK A01 T01031091  RH  025%=      5-min Rain = 0
KPD2 111731Z 34015KT 10/M09 A3032 RMK A01 T00991091  RH  025%=      5-min Rain = 0
KPD2 111732Z 34013KT 10/M09 A3032 RMK A01 T00971090  RH  026%=      5-min Rain = 0
KPD2 111733Z 35014G19KT 10/M09 A3032 RMK A01 T00991088  RH  026%=      5-min Rain = 0
KPD2 111734Z 34015G22KT 10/M09 A3032 RMK A01 T00991089  RH  026%=      5-min Rain = 0
KPD2 111735Z 34015KT 10/M09 A3032 RMK A01 T00991089  RH  026%=      5-min Rain = 0
KPD2 111736Z 34014G20KT 10/M09 A3032 RMK A01 T01001089  RH  025%=      5-min Rain = 0
KPD2 111737Z 35011G18KT 10/M09 A3032 RMK A01 T01001089  RH  025%=      5-min Rain = 0
KPD2 111738Z 34015KT 10/M09 A3032 RMK A01 T01011090  RH  025%=      5-min Rain = 0
KPD2 111739Z 34017KT 10/M09 A3032 RMK A01 T01001091  RH  025%=      5-min Rain = 0
KPD2 111740Z 34012G19KT 10/M09 A3032 RMK A01 T00991090  RH  025%=      5-min Rain = 0
KPD2 111741Z 34014G19KT 10/M09 A3032 RMK A01 T01021088  RH  025%=      5-min Rain = 0
KPD2 111742Z 35015KT 11/M09 A3032 RMK A01 T01061088  RH  025%=      5-min Rain = 0
KPD2 111743Z 35013KT 11/M09 A3032 RMK A01 T01051090  RH  024%=      5-min Rain = 0
KPD2 111744Z 36009KT 10/M09 A3031 RMK A01 T01031090  RH  025%=      5-min Rain = 0
KPD2 111745Z 34011G17KT 11/M09 A3031 RMK A01 T01061087  RH  025%=      5-min Rain = 0
KPD2 111746Z 35013KT 11/M09 A3031 RMK A01 T01111085  RH  025%=      5-min Rain = 0
KPD2 111747Z 36014KT 12/M09 A3031 RMK A01 T01151085  RH  024%=      5-min Rain = 0
KPD2 111748Z 35013G18KT 12/M09 A3031 RMK A01 T01161087  RH  023%=      5-min Rain = 0
KPD2 111749Z 34015G20KT 12/M09 A3031 RMK A01 T01161088  RH  023%=      5-min Rain = 0
KPD2 111750Z 33013G18KT 12/M09 A3031 RMK A01 T01151088  RH  023%=      5-min Rain = 0
KPD2 111751Z 34019G27KT 12/M09 A3031 RMK A01 T01171089  RH  023%=      5-min Rain = 0
KPD2 111752Z 34014G20KT 11/M09 A3031 RMK A01 T01141093  RH  023%=      5-min Rain = 0
KPD2 111753Z 34015G20KT 11/M10 A3032 RMK A01 T01111095  RH  023%=      5-min Rain = 0
KPD2 111754Z 33011G19KT 11/M10 A3031 RMK A01 T01081095  RH  023%=      5-min Rain = 0
KPD2 111755Z 33016G22KT 11/M09 A3031 RMK A01 T01081094  RH  023%=      5-min Rain = 0
KPD2 111756Z 34011G16KT 11/M09 A3031 RMK A01 T01091094  RH  023%=      5-min Rain = 0
KPD2 111757Z 35011KT 11/M09 A3032 RMK A01 T01101094  RH  023%=      5-min Rain = 0
KPD2 111758Z 33011KT 11/M09 A3032 RMK A01 T01101094  RH  023%=      5-min Rain = 0
KPD2 111759Z 34009G17KT 11/M09 A3031 RMK A01 T01131092  RH  023%=      5-min Rain = 0
KPD2 111800Z 35009G15KT 12/M09 A3032 RMK A01 T01151094  RH  022%=      5-min Rain = 0
KPD2 111801Z 34009KT 11/M10 A3031 RMK A01 T01121097  RH  022%=      5-min Rain = 0
KPD2 111802Z 35011KT 11/M10 A3031 RMK A01 T01121095  RH  022%=      5-min Rain = 0
KPD2 111803Z 35010KT 12/M09 A3032 RMK A01 T01171091  RH  022%=      5-min Rain = 0
KPD2 111804Z 35007G14KT 12/M09 A3031 RMK A01 T01201092  RH  022%=      5-min Rain = 0
KPD2 111805Z 34008G13KT 12/M09 A3032 RMK A01 T01201093  RH  022%=      5-min Rain = 0
KPD2 111806Z 34014KT 12/M09 A3031 RMK A01 T01231092  RH  021%=      5-min Rain = 0
KPD2 111807Z 36014KT 12/M10 A3031 RMK A01 T01201096  RH  021%=      5-min Rain = 0
KPD2 111808Z 34009KT 12/M10 A3032 RMK A01 T01191095  RH  021%=      5-min Rain = 0
KPD2 111809Z 33009G16KT 12/M09 A3031 RMK A01 T01211094  RH  021%=      5-min Rain = 0
KPD2 111810Z 32012G17KT 12/M10 A3031 RMK A01 T01181098  RH  021%=      5-min Rain = 0
KPD2 111811Z 32013KT 12/M10 A3031 RMK A01 T01151098  RH  021%=      5-min Rain = 0
KPD2 111812Z 33010KT 11/M10 A3031 RMK A01 T01131098  RH  022%=      5-min Rain = 0
KPD2 111813Z 35007KT 11/M10 A3032 RMK A01 T01131098  RH  022%=      5-min Rain = 0
KPD2 111814Z 01010G17KT 11/M10 A3032 RMK A01 T01121100  RH  022%=      5-min Rain = 0
KPD2 111815Z 34011G18KT 11/M10 A3031 RMK A01 T01111101  RH  022%=      5-min Rain = 0
KPD2 111816Z 34014KT 11/M10 A3031 RMK A01 T01111100  RH  022%=      5-min Rain = 0
KPD2 111817Z 34014KT 11/M10 A3031 RMK A01 T01111101  RH  022%=      5-min Rain = 0
KPD2 111818Z 35009G16KT 11/M10 A3031 RMK A01 T01101101  RH  022%=      5-min Rain = 0
KPD2 111819Z 33016KT 11/M10 A3031 RMK A01 T01111099  RH  022%=      5-min Rain = 0
KPD2 111820Z 34018KT 11/M10 A3031 RMK A01 T01101102  RH  022%=      5-min Rain = 0
KPD2 111821Z 34016G22KT 11/M10 A3031 RMK A01 T01091102  RH  022%=      5-min Rain = 0
KPD2 111822Z 35017G22KT 11/M10 A3031 RMK A01 T01101101  RH  022%=      5-min Rain = 0
KPD2 111823Z 34013KT 11/M10 A3031 RMK A01 T01101101  RH  022%=      5-min Rain = 0
KPD2 111824Z 33011KT 11/M10 A3031 RMK A01 T01141098  RH  022%=      5-min Rain = 0
KPD2 111825Z 35013G20KT 12/M10 A3031 RMK A01 T01171098  RH  021%=      5-min Rain = 0
KPD2 111826Z 34017G24KT 12/M10 A3031 RMK A01 T01191099  RH  021%=      5-min Rain = 0
KPD2 111827Z 34017G24KT 12/M10 A3031 RMK A01 T01191100  RH  021%=      5-min Rain = 0
KPD2 111828Z 34010G15KT 12/M10 A3031 RMK A01 T01201099  RH  021%=      5-min Rain = 0
KPD2 111829Z 36015G20KT 12/M10 A3031 RMK A01 T01201099  RH  021%=      5-min Rain = 0
KPD2 111830Z 34019G25KT 12/M10 A3031 RMK A01 T01221100  RH  020%=      5-min Rain = 0
KPD2 111831Z 33020KT 12/M10 A3031 RMK A01 T01201102  RH  020%=      5-min Rain = 0
KPD2 111832Z 33011G18KT 12/M10 A3031 RMK A01 T01191103  RH  020%=      5-min Rain = 0
KPD2 111833Z 36010KT 12/M10 A3031 RMK A01 T01191102  RH  020%=      5-min Rain = 0
KPD2 111834Z 36011KT 12/M10 A3031 RMK A01 T01231099  RH  020%=      5-min Rain = 0
KPD2 111835Z 35008G14KT 13/M10 A3031 RMK A01 T01261099  RH  020%=      5-min Rain = 0
KPD2 111836Z 34010G15KT 13/M10 A3031 RMK A01 T01281100  RH  019%=      5-min Rain = 0
KPD2 111837Z 01013KT 13/M10 A3031 RMK A01 T01281102  RH  019%=      5-min Rain = 0
KPD2 111838Z 03012G19KT 12/M10 A3031 RMK A01 T01241104  RH  019%=      5-min Rain = 0
KPD2 111839Z 33010G16KT 12/M10 A3031 RMK A01 T01201104  RH  020%=      5-min Rain = 0
KPD2 111840Z 00012G18KT 12/M10 A3031 RMK A01 T01231100  RH  020%=      5-min Rain = 0
KPD2 111841Z 01014KT 12/M10 A3031 RMK A01 T01241101  RH  020%=      5-min Rain = 0
KPD2 111842Z 02012KT 12/M10 A303 RMK A01 T01231103  RH  020%=      5-min Rain = 0
KPD2 111843Z 02011KT 12/M11 A303 RMK A01 T01201105  RH  020%=      5-min Rain = 0
KPD2 111844Z 00005G14KT 12/M10 A3031 RMK A01 T01171104  RH  020%=      5-min Rain = 0
KPD2 111845Z 35010G15KT 12/M10 A3031 RMK A01 T01221099  RH  020%=      5-min Rain = 0
KPD2 111846Z 01009KT 13/M10 A303 RMK A01 T01251100  RH  020%=      5-min Rain = 0
KPD2 111847Z 34017G23KT 13/M10 A303 RMK A01 T01281099  RH  019%=      5-min Rain = 0
KPD2 111848Z 34018G25KT 13/M10 A303 RMK A01 T01291103  RH  019%=      5-min Rain = 0
KPD2 111849Z 33020G26KT 13/M11 A303 RMK A01 T01281106  RH  019%=      5-min Rain = 0
KPD2 111850Z 33013KT 12/M11 A303 RMK A01 T01241107  RH  019%=      5-min Rain = 0
KPD2 111851Z 34012KT 12/M11 A303 RMK A01 T01241105  RH  019%=      5-min Rain = 0
KPD2 111852Z 34006KT 13/M10 A303 RMK A01 T01271102  RH  019%=      5-min Rain = 0
KPD2 111853Z 32011KT 13/M10 A303 RMK A01 T01301101  RH  019%=      5-min Rain = 0
KPD2 111854Z 33011KT 13/M10 A303 RMK A01 T01321102  RH  019%=      5-min Rain = 0
KPD2 111855Z 36009KT 14/M10 A303 RMK A01 T01361100  RH  018%=      5-min Rain = 0
KPD2 111856Z 36007G14KT 14/M10 A303 RMK A01 T01381101  RH  018%=      5-min Rain = 0
KPD2 111857Z 35012G17KT 14/M10 A303 RMK A01 T01411101  RH  018%=      5-min Rain = 0
KPD2 111858Z 35008KT 14/M10 A303 RMK A01 T01391103  RH  018%=      5-min Rain = 0
KPD2 111859Z 36008KT 14/M10 A303 RMK A01 T01391102  RH  018%=      5-min Rain = 0
KPD2 111900Z 01008KT 14/M10 A303 RMK A01 T01401101  RH  018%=      5-min Rain = 0
KPD2 111901Z 02012KT 14/M10 A303 RMK A01 T01391104  RH  018%=      5-min Rain = 0
KPD2 111902Z 03008G14KT 13/M11 A303 RMK A01 T01321110  RH  018%=      5-min Rain = 0
KPD2 111903Z 04014KT 13/M11 A3029 RMK A01 T01281108  RH  018%=      5-min Rain = 0
KPD2 111904Z 00012KT 13/M11 A303 RMK A01 T01261108  RH  018%=      5-min Rain = 0
KPD2 111905Z 35012KT 13/M11 A3029 RMK A01 T01271105  RH  019%=      5-min Rain = 0
KPD2 111906Z 33014G20KT 13/M10 A3029 RMK A01 T01311103  RH  019%=      5-min Rain = 0
KPD2 111907Z 33016KT 13/M10 A3029 RMK A01 T01341103  RH  018%=      5-min Rain = 0
KPD2 111908Z 34012G21KT 13/M11 A303 RMK A01 T01331106  RH  018%=      5-min Rain = 0
KPD2 111909Z 34013G18KT 13/M10 A303 RMK A01 T01331104  RH  018%=      5-min Rain = 0
KPD2 111910Z 34014KT 13/M11 A303 RMK A01 T01331105  RH  018%=      5-min Rain = 0
KPD2 111911Z 35015KT 13/M11 A3029 RMK A01 T01321105  RH  018%=      5-min Rain = 0
KPD2 111912Z 34013KT 13/M11 A3029 RMK A01 T01321105  RH  018%=      5-min Rain = 0
KPD2 111913Z 35011G19KT 13/M11 A3029 RMK A01 T01291107  RH  018%=      5-min Rain = 0
KPD2 111914Z 31009KT 13/M11 A3029 RMK A01 T01271107  RH  019%=      5-min Rain = 0
KPD2 111915Z 32008KT 13/M11 A3029 RMK A01 T01271105  RH  019%=      5-min Rain = 0
KPD2 111916Z 00005KT 13/M10 A3029 RMK A01 T01301102  RH  019%=      5-min Rain = 0
KPD2 111917Z 02008KT 14/M10 A3029 RMK A01 T01351102  RH  018%=      5-min Rain = 0
KPD2 111918Z 02008KT 14/M10 A3029 RMK A01 T01371103  RH  018%=      5-min Rain = 0
KPD2 111919Z 35006G12KT 14/M10 A3029 RMK A01 T01391103  RH  018%=      5-min Rain = 0
KPD2 111920Z 00008G16KT 14/M10 A3029 RMK A01 T01441100  RH  018%=      5-min Rain = 0
KPD2 111921Z 01012KT 15/M10 A3029 RMK A01 T01471104  RH  017%=      5-min Rain = 0
KPD2 111922Z 34013KT 14/M11 A3029 RMK A01 T01441107  RH  017%=      5-min Rain = 0
KPD2 111923Z 36011G18KT 15/M10 A3029 RMK A01 T01451104  RH  017%=      5-min Rain = 0
KPD2 111924Z 00012KT 15/M10 A3029 RMK A01 T01481102  RH  017%=      5-min Rain = 0
KPD2 111925Z 35009KT 15/M11 A3029 RMK A01 T01481105  RH  016%=      5-min Rain = 0
KPD2 111926Z 36009G14KT 15/M11 A3029 RMK A01 T01451107  RH  016%=      5-min Rain = 0
KPD2 111927Z 00009G15KT 14/M11 A3029 RMK A01 T01411107  RH  017%=      5-min Rain = 0
KPD2 111928Z 00013G18KT 14/M11 A3029 RMK A01 T01401108  RH  017%=      5-min Rain = 0
KPD2 111929Z 34004KT 14/M11 A3029 RMK A01 T01361110  RH  017%=      5-min Rain = 0
KPD2 111930Z 35010G15KT 14/M11 A3029 RMK A01 T01381107  RH  017%=      5-min Rain = 0
KPD2 111931Z 33012G19KT 14/M11 A3029 RMK A01 T01381108  RH  017%=      5-min Rain = 0
KPD2 111932Z 34014G19KT 14/M11 A3029 RMK A01 T01381109  RH  017%=      5-min Rain = 0
KPD2 111933Z 35010KT 14/M11 A3029 RMK A01 T01381109  RH  017%=      5-min Rain = 0
KPD2 111934Z 35010KT 14/M11 A3029 RMK A01 T01391108  RH  017%=      5-min Rain = 0
KPD2 111935Z 34008G13KT 14/M11 A3029 RMK A01 T01381108  RH  017%=      5-min Rain = 0
KPD2 111936Z 32006KT 14/M11 A3029 RMK A01 T01361109  RH  017%=      5-min Rain = 0
KPD2 111937Z 31008KT 14/M11 A3028 RMK A01 T01381106  RH  017%=      5-min Rain = 0
KPD2 111938Z 35009KT 14/M11 A3028 RMK A01 T01361109  RH  017%=      5-min Rain = 0
KPD2 111939Z 00007KT 13/M11 A3029 RMK A01 T01331109  RH  017%=      5-min Rain = 0
KPD2 111940Z 34008G14KT 13/M11 A3029 RMK A01 T01331107  RH  018%=      5-min Rain = 0
KPD2 111941Z 34009G15KT 13/M11 A3029 RMK A01 T01341107  RH  018%=      5-min Rain = 0
KPD2 111942Z 34011KT 14/M11 A3028 RMK A01 T01361106  RH  018%=      5-min Rain = 0
KPD2 111943Z 34012G18KT 14/M11 A3028 RMK A01 T01351109  RH  017%=      5-min Rain = 0
KPD2 111944Z 33017G26KT 13/M11 A3028 RMK A01 T01321110  RH  018%=      5-min Rain = 0
KPD2 111945Z 34015G21KT 13/M11 A3028 RMK A01 T01301110  RH  018%=      5-min Rain = 0
KPD2 111946Z 35015G21KT 13/M11 A3028 RMK A01 T01291109  RH  018%=      5-min Rain = 0
KPD2 111947Z 35013KT 13/M11 A3028 RMK A01 T01291108  RH  018%=      5-min Rain = 0
KPD2 111948Z 33012G19KT 13/M11 A3028 RMK A01 T01301106  RH  018%=      5-min Rain = 0
KPD2 111949Z 31016G21KT 13/M11 A3028 RMK A01 T01311106  RH  018%=      5-min Rain = 0
KPD2 111950Z 32015G22KT 13/M11 A3028 RMK A01 T01291108  RH  018%=      5-min Rain = 0
KPD2 111951Z 34014G23KT 13/M11 A3028 RMK A01 T01281107  RH  018%=      5-min Rain = 0
KPD2 111952Z 36014G23KT 13/M10 A3028 RMK A01 T01311104  RH  018%=      5-min Rain = 0
KPD2 111953Z 34014G19KT 13/M10 A3028 RMK A01 T01331104  RH  018%=      5-min Rain = 0
KPD2 111954Z 33016G22KT 13/M10 A3028 RMK A01 T01331104  RH  018%=      5-min Rain = 0
KPD2 111955Z 32010G16KT 13/M11 A3028 RMK A01 T01301106  RH  018%=      5-min Rain = 0
KPD2 111956Z 33012KT 13/M11 A3028 RMK A01 T01301105  RH  019%=      5-min Rain = 0
KPD2 111957Z 35015KT 13/M10 A3028 RMK A01 T01331101  RH  019%=      5-min Rain = 0
KPD2 111958Z 34016G21KT 14/M10 A3028 RMK A01 T01381101  RH  018%=      5-min Rain = 0
KPD2 111959Z 34014G20KT 14/M10 A3028 RMK A01 T01381103  RH  018%=      5-min Rain = 0
KPD2 112000Z 33013KT 14/M10 A3028 RMK A01 T01361104  RH  018%=      5-min Rain = 0
KPD2 112001Z 35012KT 13/M10 A3028 RMK A01 T01341104  RH  018%=      5-min Rain = 0
KPD2 112002Z 36010G17KT 14/M10 A3029 RMK A01 T01391100  RH  018%=      5-min Rain = 0
KPD2 112003Z 35012KT 14/M10 A3029 RMK A01 T01401101  RH  018%=      5-min Rain = 0
KPD2 112004Z 34016KT 14/M10 A3028 RMK A01 T01381103  RH  018%=      5-min Rain = 0
KPD2 112005Z 34017G22KT 13/M10 A3028 RMK A01 T01341104  RH  018%=      5-min Rain = 0
KPD2 112006Z 33015G21KT 13/M10 A3028 RMK A01 T01311104  RH  018%=      5-min Rain = 0
KPD2 112007Z 34012G18KT 13/M10 A3028 RMK A01 T01311102  RH  019%=      5-min Rain = 0
KPD2 112008Z 34009KT 13/M10 A3028 RMK A01 T01341099  RH  019%=      5-min Rain = 0
KPD2 112009Z 35008KT 14/M09 A3028 RMK A01 T01411094  RH  019%=      5-min Rain = 0
KPD2 112010Z 34010G18KT 14/M10 A3028 RMK A01 T01441098  RH  018%=      5-min Rain = 0
KPD2 112011Z 35012G19KT 14/M10 A3028 RMK A01 T01431100  RH  018%=      5-min Rain = 0
KPD2 112012Z 34014KT 14/M10 A3028 RMK A01 T01421100  RH  018%=      5-min Rain = 0
KPD2 112013Z 34013G18KT 14/M10 A3027 RMK A01 T01401101  RH  018%=      5-min Rain = 0
KPD2 112014Z 33013G19KT 14/M10 A3027 RMK A01 T01391102  RH  018%=      5-min Rain = 0
KPD2 112015Z 34010KT 14/M10 A3027 RMK A01 T01391101  RH  018%=      5-min Rain = 0
KPD2 112016Z 36016KT 14/M10 A3028 RMK A01 T01411100  RH  018%=      5-min Rain = 0
KPD2 112017Z 34012G17KT 14/M10 A3028 RMK A01 T01411102  RH  018%=      5-min Rain = 0
KPD2 112018Z 35012KT 14/M10 A3028 RMK A01 T01421101  RH  018%=      5-min Rain = 0
KPD2 112019Z 34014KT 14/M10 A3028 RMK A01 T01421101  RH  017%=      5-min Rain = 0
KPD2 112020Z 35017KT 14/M10 A3028 RMK A01 T01401104  RH  017%=      5-min Rain = 0
KPD2 112021Z 33011G18KT 13/M11 A3028 RMK A01 T01341107  RH  018%=      5-min Rain = 0
KPD2 112022Z 35010G15KT 13/M11 A3028 RMK A01 T01321105  RH  018%=      5-min Rain = 0
KPD2 112023Z 34014G22KT 13/M10 A3028 RMK A01 T01331103  RH  018%=      5-min Rain = 0
KPD2 112024Z 35013KT 13/M10 A3028 RMK A01 T01331103  RH  018%=      5-min Rain = 0
KPD2 112025Z 35014KT 13/M10 A3028 RMK A01 T01341101  RH  018%=      5-min Rain = 0
KPD2 112026Z 36010KT 14/M10 A3028 RMK A01 T01351101  RH  018%=      5-min Rain = 0
KPD2 112027Z 34012KT 14/M10 A3028 RMK A01 T01351100  RH  019%=      5-min Rain = 0
KPD2 112028Z 35011KT 14/M10 A3028 RMK A01 T01361099  RH  018%=      5-min Rain = 0
KPD2 112029Z 35013G18KT 14/M10 A3028 RMK A01 T01371100  RH  018%=      5-min Rain = 0
KPD2 112030Z 35015KT 14/M10 A3028 RMK A01 T01361101  RH  018%=      5-min Rain = 0
KPD2 112031Z 34015KT 13/M10 A3028 RMK A01 T01341102  RH  018%=      5-min Rain = 0
KPD2 112032Z 32012KT 13/M10 A3028 RMK A01 T01321103  RH  018%=      5-min Rain = 0
KPD2 112033Z 32010KT 13/M10 A3028 RMK A01 T01321102  RH  019%=      5-min Rain = 0
KPD2 112034Z 34014G19KT 13/M10 A3028 RMK A01 T01341100  RH  019%=      5-min Rain = 0
KPD2 112035Z 35012KT 13/M10 A3028 RMK A01 T01331101  RH  019%=      5-min Rain = 0
KPD2 112036Z 34010G16KT 13/M10 A3027 RMK A01 T01311101  RH  019%=      5-min Rain = 0
KPD2 112037Z 33013KT 13/M10 A3027 RMK A01 T01331098  RH  019%=      5-min Rain = 0
KPD2 112038Z 35015G21KT 13/M10 A3027 RMK A01 T01341098  RH  019%=      5-min Rain = 0
KPD2 112039Z 35013G20KT 13/M10 A3027 RMK A01 T01341099  RH  019%=      5-min Rain = 0
KPD2 112040Z 35009KT 14/M10 A3027 RMK A01 T01351098  RH  019%=      5-min Rain = 0
KPD2 112041Z 33008KT 14/M10 A3027 RMK A01 T01371097  RH  019%=      5-min Rain = 0
KPD2 112042Z 34014KT 14/M10 A3027 RMK A01 T01371100  RH  018%=      5-min Rain = 0
KPD2 112043Z 35016KT 14/M10 A3027 RMK A01 T01391098  RH  018%=      5-min Rain = 0
KPD2 112044Z 34011KT 14/M10 A3027 RMK A01 T01421097  RH  018%=      5-min Rain = 0
KPD2 112045Z 33009KT 14/M10 A3027 RMK A01 T01441097  RH  018%=      5-min Rain = 0
KPD2 112046Z 32013G18KT 14/M10 A3027 RMK A01 T01441097  RH  018%=      5-min Rain = 0
KPD2 112047Z 32012G17KT 14/M10 A3026 RMK A01 T01401100  RH  018%=      5-min Rain = 0
KPD2 112048Z 31012KT 14/M10 A3026 RMK A01 T01391098  RH  018%=      5-min Rain = 0
KPD2 112049Z 32011KT 14/M10 A3026 RMK A01 T01381098  RH  018%=      5-min Rain = 0
KPD2 112050Z 32007KT 14/M10 A3027 RMK A01 T01371097  RH  019%=      5-min Rain = 0
KPD2 112051Z 30004KT 14/M10 A3027 RMK A01 T01381096  RH  019%=      5-min Rain = 0
KPD2 112052Z 32005G11KT 14/M10 A3026 RMK A01 T01391096  RH  019%=      5-min Rain = 0
KPD2 112053Z 34007KT 14/M10 A3026 RMK A01 T01391097  RH  019%=      5-min Rain = 0
KPD2 112054Z 34008KT 14/M10 A3026 RMK A01 T01381097  RH  019%=      5-min Rain = 0
KPD2 112055Z 35005KT 14/M10 A3026 RMK A01 T01391096  RH  019%=      5-min Rain = 0
KPD2 112056Z 32008G13KT 14/M10 A3026 RMK A01 T01401096  RH  019%=      5-min Rain = 0
KPD2 112057Z 34006KT 14/M10 A3026 RMK A01 T01411097  RH  018%=      5-min Rain = 0
KPD2 112058Z 34011KT 14/M10 A3027 RMK A01 T01401097  RH  018%=      5-min Rain = 0
KPD2 112059Z 34012KT 14/M10 A3027 RMK A01 T01411101  RH  018%=      5-min Rain = 0
KPD2 112100Z 34012G18KT 14/M11 A3027 RMK A01 T01401105  RH  017%=      5-min Rain = 0
KPD2 112101Z 35012G19KT 14/M11 A3027 RMK A01 T01411106  RH  017%=      5-min Rain = 0
KPD2 112102Z 35015G23KT 14/M11 A3027 RMK A01 T01421106  RH  017%=      5-min Rain = 0
KPD2 112103Z 35016KT 15/M10 A3027 RMK A01 T01451103  RH  017%=      5-min Rain = 0
KPD2 112104Z 34013KT 15/M10 A3026 RMK A01 T01451103  RH  017%=      5-min Rain = 0
KPD2 112105Z 34011KT 14/M10 A3026 RMK A01 T01441102  RH  017%=      5-min Rain = 0
KPD2 112106Z 00013G19KT 15/M10 A3026 RMK A01 T01471099  RH  017%=      5-min Rain = 0
KPD2 112107Z 35013KT 15/M10 A3026 RMK A01 T01511099  RH  017%=      5-min Rain = 0
KPD2 112108Z 35010G15KT 15/M10 A3026 RMK A01 T01511100  RH  017%=      5-min Rain = 0
KPD2 112109Z 35009G14KT 15/M10 A3026 RMK A01 T01511101  RH  017%=      5-min Rain = 0
KPD2 112110Z 33012KT 15/M10 A3026 RMK A01 T01541099  RH  017%=      5-min Rain = 0
KPD2 112111Z 33013KT 15/M10 A3026 RMK A01 T01521102  RH  016%=      5-min Rain = 0
KPD2 112112Z 32011G18KT 15/M10 A3026 RMK A01 T01491104  RH  016%=      5-min Rain = 0
KPD2 112113Z 34015KT 15/M11 A3026 RMK A01 T01461108  RH  016%=      5-min Rain = 0
KPD2 112114Z 33014KT 15/M11 A3026 RMK A01 T01451110  RH  016%=      5-min Rain = 0
KPD2 112115Z 00014KT 15/M11 A3026 RMK A01 T01491107  RH  016%=      5-min Rain = 0
KPD2 112116Z 35010G15KT 15/M11 A3026 RMK A01 T01501108  RH  016%=      5-min Rain = 0
KPD2 112117Z 35009G15KT 15/M11 A3026 RMK A01 T01511109  RH  016%=      5-min Rain = 0
KPD2 112118Z 35009KT 15/M11 A3026 RMK A01 T01511110  RH  016%=      5-min Rain = 0
KPD2 112119Z 02008G15KT 15/M11 A3026 RMK A01 T01511111  RH  015%=      5-min Rain = 0
KPD2 112120Z 01008G13KT 15/M11 A3026 RMK A01 T01491113  RH  015%=      5-min Rain = 0
KPD2 112121Z 36009G14KT 15/M11 A3026 RMK A01 T01481113  RH  015%=      5-min Rain = 0
KPD2 112122Z 33008G14KT 15/M11 A3026 RMK A01 T01481113  RH  015%=      5-min Rain = 0
KPD2 112123Z 33006KT 15/M11 A3026 RMK A01 T01491113  RH  015%=      5-min Rain = 0
KPD2 112124Z 33008G14KT 15/M11 A3026 RMK A01 T01521111  RH  015%=      5-min Rain = 0
KPD2 112125Z 34016G22KT 16/M11 A3026 RMK A01 T01561107  RH  015%=      5-min Rain = 0
KPD2 112126Z 35011KT 16/M11 A3026 RMK A01 T01561108  RH  015%=      5-min Rain = 0
KPD2 112127Z 34012KT 16/M11 A3026 RMK A01 T01561111  RH  015%=      5-min Rain = 0
KPD2 112128Z 35012KT 15/M11 A3026 RMK A01 T01541113  RH  015%=      5-min Rain = 0
KPD2 112129Z 34011G18KT 15/M12 A3026 RMK A01 T01501116  RH  015%=      5-min Rain = 0
KPD2 112130Z 34015KT 15/M12 A3026 RMK A01 T01471116  RH  015%=      5-min Rain = 0
KPD2 112131Z 34013KT 15/M12 A3026 RMK A01 T01461116  RH  015%=      5-min Rain = 0
KPD2 112132Z 01011G16KT 15/M12 A3026 RMK A01 T01461118  RH  015%=      5-min Rain = 0
KPD2 112133Z 36012G19KT 15/M12 A3026 RMK A01 T01451119  RH  015%=      5-min Rain = 0
KPD2 112134Z 00013G20KT 14/M12 A3026 RMK A01 T01441121  RH  015%=      5-min Rain = 0
KPD2 112135Z 02015G22KT 14/M13 A3026 RMK A01 T01441125  RH  014%=      5-min Rain = 0
KPD2 112136Z 33012KT 14/M13 A3026 RMK A01 T01431125  RH  014%=      5-min Rain = 0
KPD2 112137Z 34011KT 15/M12 A3026 RMK A01 T01451124  RH  014%=      5-min Rain = 0
KPD2 112138Z 34013G23KT 15/M13 A3026 RMK A01 T01451125  RH  014%=      5-min Rain = 0
KPD2 112139Z 34015KT 14/M13 A3026 RMK A01 T01441129  RH  014%=      5-min Rain = 0
KPD2 112140Z 35011KT 14/M13 A3026 RMK A01 T01431132  RH  014%=      5-min Rain = 0
KPD2 112141Z 35011KT 14/M14 A3026 RMK A01 T01441135  RH  013%=      5-min Rain = 0
KPD2 112142Z 34009G14KT 15/M14 A3026 RMK A01 T01461137  RH  013%=      5-min Rain = 0
KPD2 112143Z 35010KT 15/M14 A3026 RMK A01 T01461138  RH  013%=      5-min Rain = 0
KPD2 112144Z 33011G18KT 15/M14 A3026 RMK A01 T01451137  RH  013%=      5-min Rain = 0
KPD2 112145Z 35012G18KT 14/M13 A3026 RMK A01 T01441134  RH  013%=      5-min Rain = 0
KPD2 112146Z 34009KT 14/M13 A3026 RMK A01 T01431134  RH  013%=      5-min Rain = 0
KPD2 112147Z 34005KT 14/M13 A3026 RMK A01 T01441132  RH  014%=      5-min Rain = 0
KPD2 112148Z 01006KT 15/M13 A3026 RMK A01 T01471131  RH  013%=      5-min Rain = 0
KPD2 112149Z 34010G15KT 15/M13 A3026 RMK A01 T01501130  RH  013%=      5-min Rain = 0
KPD2 112150Z 33015KT 15/M14 A3026 RMK A01 T01501138  RH  012%=      5-min Rain = 0
KPD2 112151Z 34013KT 15/M15 A3026 RMK A01 T01481145  RH  012%=      5-min Rain = 0
KPD2 112152Z 34010KT 15/M15 A3026 RMK A01 T01451149  RH  012%=      5-min Rain = 0
KPD2 112153Z 35010KT 14/M15 A3026 RMK A01 T01441149  RH  012%=      5-min Rain = 0
KPD2 112154Z 34010KT 15/M15 A3026 RMK A01 T01451148  RH  012%=      5-min Rain = 0
KPD2 112155Z 31010KT 15/M15 A3026 RMK A01 T01471152  RH  011%=      5-min Rain = 0
KPD2 112156Z 32009KT 14/M16 A3026 RMK A01 T01441159  RH  011%=      5-min Rain = 0
KPD2 112157Z 34012KT 14/M15 A3026 RMK A01 T01441152  RH  011%=      5-min Rain = 0
KPD2 112158Z 35012KT 14/M14 A3026 RMK A01 T01421141  RH  013%=      5-min Rain = 0
KPD2 112159Z 34015G21KT 14/M14 A3026 RMK A01 T01421138  RH  013%=      5-min Rain = 0
KPD2 112200Z 34014KT 14/M14 A3026 RMK A01 T01421138  RH  013%=      5-min Rain = 0
KPD2 112201Z 34012KT 14/M14 A3026 RMK A01 T01401138  RH  013%=      5-min Rain = 0
KPD2 112202Z 35015KT 14/M14 A3026 RMK A01 T01401136  RH  013%=      5-min Rain = 0
KPD2 112203Z 33012KT 14/M14 A3026 RMK A01 T01411135  RH  013%=      5-min Rain = 0
KPD2 112204Z 33009KT 14/M13 A3026 RMK A01 T01421134  RH  014%=      5-min Rain = 0
KPD2 112205Z 34007KT 15/M13 A3026 RMK A01 T01451130  RH  014%=      5-min Rain = 0
KPD2 112206Z 34006G14KT 15/M13 A3026 RMK A01 T01491127  RH  014%=      5-min Rain = 0
KPD2 112207Z 00010G16KT 15/M13 A3026 RMK A01 T01491130  RH  013%=      5-min Rain = 0
KPD2 112208Z 34009KT 14/M13 A3026 RMK A01 T01431132  RH  014%=      5-min Rain = 0
KPD2 112209Z 00009KT 14/M13 A3026 RMK A01 T01421129  RH  014%=      5-min Rain = 0
KPD2 112210Z 33008KT 15/M13 A3026 RMK A01 T01451127  RH  014%=      5-min Rain = 0
KPD2 112211Z 32008KT 15/M13 A3026 RMK A01 T01471127  RH  014%=      5-min Rain = 0
KPD2 112212Z 33008KT 15/M13 A3026 RMK A01 T01471129  RH  014%=      5-min Rain = 0
KPD2 112213Z 35012KT 14/M13 A3026 RMK A01 T01441130  RH  014%=      5-min Rain = 0
KPD2 112214Z 35013KT 15/M13 A3026 RMK A01 T01451128  RH  014%=      5-min Rain = 0
KPD2 112215Z 34011KT 15/M13 A3026 RMK A01 T01471127  RH  014%=      5-min Rain = 0
KPD2 112216Z 34008KT 15/M13 A3026 RMK A01 T01491127  RH  014%=      5-min Rain = 0
KPD2 112217Z 34008G13KT 15/M13 A3026 RMK A01 T01511126  RH  014%=      5-min Rain = 0
KPD2 112218Z 34010KT 15/M13 A3026 RMK A01 T01521125  RH  014%=      5-min Rain = 0
KPD2 112219Z 02010KT 15/M13 A3026 RMK A01 T01501129  RH  013%=      5-min Rain = 0
KPD2 112220Z 34011G19KT 15/M13 A3026 RMK A01 T01491128  RH  014%=      5-min Rain = 0
KPD2 112221Z 35011KT 15/M13 A3026 RMK A01 T01491129  RH  013%=      5-min Rain = 0
KPD2 112222Z 33007KT 15/M13 A3026 RMK A01 T01481130  RH  013%=      5-min Rain = 0
KPD2 112223Z 34006G11KT 15/M13 A3026 RMK A01 T01511126  RH  014%=      5-min Rain = 0
KPD2 112224Z 34011G17KT 15/M13 A3026 RMK A01 T01531127  RH  013%=      5-min Rain = 0
KPD2 112225Z 00007KT 15/M13 A3026 RMK A01 T01511130  RH  013%=      5-min Rain = 0
KPD2 112226Z 32005KT 15/M13 A3026 RMK A01 T01491131  RH  013%=      5-min Rain = 0
KPD2 112227Z 35005KT 15/M13 A3026 RMK A01 T01481131  RH  013%=      5-min Rain = 0
KPD2 112228Z 33004KT 15/M13 A3026 RMK A01 T01491130  RH  013%=      5-min Rain = 0
KPD2 112229Z 35004KT 15/M13 A3026 RMK A01 T01491130  RH  013%=      5-min Rain = 0
KPD2 112230Z 01008KT 15/M13 A3026 RMK A01 T01491131  RH  013%=      5-min Rain = 0
KPD2 112231Z 02010KT 15/M13 A3025 RMK A01 T01471131  RH  013%=      5-min Rain = 0
KPD2 112232Z 01008G13KT 15/M13 A3026 RMK A01 T01451130  RH  014%=      5-min Rain = 0
KPD2 112233Z 35008KT 14/M13 A3026 RMK A01 T01441129  RH  014%=      5-min Rain = 0
KPD2 112234Z 34011KT 15/M13 A3026 RMK A01 T01451128  RH  014%=      5-min Rain = 0
KPD2 112235Z 34011G17KT 15/M13 A3026 RMK A01 T01461131  RH  014%=      5-min Rain = 0
KPD2 112236Z 34011KT 15/M13 A3026 RMK A01 T01451129  RH  014%=      5-min Rain = 0
KPD2 112237Z 36013KT 15/M13 A3026 RMK A01 T01461127  RH  014%=      5-min Rain = 0
KPD2 112238Z 35010KT 15/M13 A3026 RMK A01 T01471126  RH  014%=      5-min Rain = 0
KPD2 112239Z 34009KT 15/M13 A3026 RMK A01 T01491125  RH  014%=      5-min Rain = 0
KPD2 112240Z 34013KT 15/M12 A3026 RMK A01 T01521124  RH  014%=      5-min Rain = 0
KPD2 112241Z 34012KT 15/M13 A3026 RMK A01 T01511126  RH  014%=      5-min Rain = 0
KPD2 112242Z 34010KT 15/M13 A3026 RMK A01 T01471128  RH  014%=      5-min Rain = 0
KPD2 112243Z 32010KT 15/M13 A3026 RMK A01 T01461126  RH  014%=      5-min Rain = 0
KPD2 112244Z 34012KT 15/M13 A3026 RMK A01 T01461127  RH  014%=      5-min Rain = 0
KPD2 112245Z 33013KT 15/M13 A3026 RMK A01 T01461127  RH  014%=      5-min Rain = 0
KPD2 112246Z 33010G15KT 15/M13 A3026 RMK A01 T01451128  RH  014%=      5-min Rain = 0
KPD2 112247Z 35011KT 14/M13 A3026 RMK A01 T01441129  RH  014%=      5-min Rain = 0
KPD2 112248Z 36007KT 14/M13 A3026 RMK A01 T01421128  RH  014%=      5-min Rain = 0
KPD2 112249Z 00006G11KT 15/M13 A3026 RMK A01 T01451125  RH  014%=      5-min Rain = 0
KPD2 112250Z 01004KT 15/M13 A3026 RMK A01 T01471125  RH  014%=      5-min Rain = 0
KPD2 112251Z 32007G12KT 15/M12 A3026 RMK A01 T01491124  RH  014%=      5-min Rain = 0
KPD2 112252Z 34013KT 15/M12 A3026 RMK A01 T01501124  RH  014%=      5-min Rain = 0
KPD2 112253Z 34010KT 15/M13 A3026 RMK A01 T01481125  RH  014%=      5-min Rain = 0
KPD2 112254Z 35012G17KT 15/M13 A3026 RMK A01 T01461125  RH  014%=      5-min Rain = 0
KPD2 112255Z 34012G17KT 14/M13 A3026 RMK A01 T01441125  RH  014%=      5-min Rain = 0
KPD2 112256Z 32017G22KT 14/M13 A3026 RMK A01 T01441125  RH  014%=      5-min Rain = 0
KPD2 112257Z 33013KT 14/M13 A3026 RMK A01 T01441126  RH  014%=      5-min Rain = 0
KPD2 112258Z 35011KT 14/M13 A3026 RMK A01 T01441125  RH  014%=      5-min Rain = 0
KPD2 112259Z 34009KT 15/M13 A3026 RMK A01 T01451125  RH  014%=      5-min Rain = 0
KPD2 112300Z 32009KT 15/M12 A3026 RMK A01 T01461124  RH  014%=      5-min Rain = 0
KPD2 112301Z 32007KT 15/M13 A3026 RMK A01 T01461125  RH  014%=      5-min Rain = 0
KPD2 112302Z 35007KT 15/M13 A3026 RMK A01 T01451125  RH  014%=      5-min Rain = 0
KPD2 112303Z 34011KT 15/M12 A3027 RMK A01 T01471124  RH  014%=      5-min Rain = 0
KPD2 112304Z 34009KT 15/M13 A3027 RMK A01 T01471126  RH  014%=      5-min Rain = 0
KPD2 112305Z 33013KT 15/M13 A3026 RMK A01 T01471126  RH  014%=      5-min Rain = 0
KPD2 112306Z 33010KT 15/M13 A3026 RMK A01 T01451127  RH  014%=      5-min Rain = 0
KPD2 112307Z 35007KT 14/M13 A3027 RMK A01 T01431126  RH  014%=      5-min Rain = 0
KPD2 112308Z 33006G11KT 14/M13 A3027 RMK A01 T01431126  RH  014%=      5-min Rain = 0
KPD2 112309Z 34010KT 15/M12 A3027 RMK A01 T01461123  RH  014%=      5-min Rain = 0
KPD2 112310Z 35008KT 15/M13 A3027 RMK A01 T01471125  RH  014%=      5-min Rain = 0
KPD2 112311Z 02008G13KT 15/M13 A3027 RMK A01 T01471127  RH  014%=      5-min Rain = 0
KPD2 112312Z 34004G9KT 15/M13 A3027 RMK A01 T01461129  RH  014%=      5-min Rain = 0
KPD2 112313Z 00008KT 15/M13 A3027 RMK A01 T01461129  RH  014%=      5-min Rain = 0
KPD2 112314Z 03008KT 14/M13 A3027 RMK A01 T01431129  RH  014%=      5-min Rain = 0
KPD2 112315Z 36006KT 14/M13 A3027 RMK A01 T01401130  RH  014%=      5-min Rain = 0
KPD2 112316Z 34008G15KT 14/M13 A3027 RMK A01 T01401129  RH  014%=      5-min Rain = 0
KPD2 112317Z 35011KT 14/M13 A3027 RMK A01 T01401129  RH  014%=      5-min Rain = 0
KPD2 112318Z 34008KT 14/M13 A3027 RMK A01 T01381131  RH  014%=      5-min Rain = 0
KPD2 112319Z 33007KT 14/M13 A3027 RMK A01 T01371131  RH  014%=      5-min Rain = 0
KPD2 112320Z 33007KT 14/M13 A3027 RMK A01 T01381130  RH  014%=      5-min Rain = 0
KPD2 112321Z 32007KT 14/M13 A3027 RMK A01 T01381128  RH  014%=      5-min Rain = 0
KPD2 112322Z 34008KT 14/M13 A3027 RMK A01 T01381128  RH  014%=      5-min Rain = 0
KPD2 112323Z 35007KT 14/M13 A3027 RMK A01 T01381128  RH  015%=      5-min Rain = 0
KPD2 112324Z 35006KT 14/M13 A3027 RMK A01 T01381128  RH  015%=      5-min Rain = 0
KPD2 112325Z 01005G10KT 14/M13 A3027 RMK A01 T01381128  RH  015%=      5-min Rain = 0
KPD2 112326Z 01007KT 14/M13 A3027 RMK A01 T01391129  RH  014%=      5-min Rain = 0
KPD2 112327Z 34005KT 14/M13 A3027 RMK A01 T01381133  RH  014%=      5-min Rain = 0
KPD2 112328Z 33008KT 14/M14 A3027 RMK A01 T01371135  RH  014%=      5-min Rain = 0
KPD2 112329Z 01009KT 14/M14 A3027 RMK A01 T01371135  RH  014%=      5-min Rain = 0
KPD2 112330Z 00007G13KT 14/M14 A3027 RMK A01 T01381137  RH  013%=      5-min Rain = 0
KPD2 112331Z 02005KT 14/M14 A3027 RMK A01 T01391139  RH  013%=      5-min Rain = 0
KPD2 112332Z 02004KT 14/M14 A3027 RMK A01 T01401140  RH  013%=      5-min Rain = 0
KPD2 112333Z 02007KT 14/M14 A3027 RMK A01 T01401141  RH  013%=      5-min Rain = 0
KPD2 112334Z 35004G9KT 14/M14 A3027 RMK A01 T01391141  RH  013%=      5-min Rain = 0
KPD2 112335Z 36006KT 14/M14 A3027 RMK A01 T01401140  RH  013%=      5-min Rain = 0
KPD2 112336Z 01005KT 14/M14 A3027 RMK A01 T01411139  RH  013%=      5-min Rain = 0
KPD2 112337Z 36006KT 14/M14 A3027 RMK A01 T01411137  RH  013%=      5-min Rain = 0
KPD2 112338Z 35003KT 14/M14 A3027 RMK A01 T01411136  RH  013%=      5-min Rain = 0
KPD2 112339Z 31005KT 14/M14 A3027 RMK A01 T01411136  RH  013%=      5-min Rain = 0
KPD2 112340Z 33007KT 14/M14 A3027 RMK A01 T01401136  RH  013%=      5-min Rain = 0
KPD2 112341Z 34005KT 14/M14 A3027 RMK A01 T01391135  RH  014%=      5-min Rain = 0
KPD2 112342Z 31006KT 14/M13 A3027 RMK A01 T01381133  RH  014%=      5-min Rain = 0
KPD2 112343Z 35006KT 14/M13 A3027 RMK A01 T01391131  RH  014%=      5-min Rain = 0
KPD2 112344Z 33006KT 14/M13 A3027 RMK A01 T01391130  RH  014%=      5-min Rain = 0
KPD2 112345Z 34011KT 14/M13 A3028 RMK A01 T01391131  RH  014%=      5-min Rain = 0
KPD2 112346Z 33007KT 14/M14 A3027 RMK A01 T01391135  RH  014%=      5-min Rain = 0
KPD2 112347Z 34005KT 14/M14 A3027 RMK A01 T01371136  RH  014%=      5-min Rain = 0
KPD2 112348Z 01005G10KT 14/M14 A3028 RMK A01 T01351137  RH  014%=      5-min Rain = 0
KPD2 112349Z 34005KT 13/M14 A3028 RMK A01 T01341139  RH  014%=      5-min Rain = 0
KPD2 112350Z 00006KT 13/M14 A3028 RMK A01 T01341139  RH  014%=      5-min Rain = 0
KPD2 112351Z 33005KT 13/M14 A3028 RMK A01 T01321139  RH  014%=      5-min Rain = 0
KPD2 112352Z 36005KT 13/M14 A3028 RMK A01 T01311140  RH  014%=      5-min Rain = 0
KPD2 112353Z 34005G10KT 13/M14 A3028 RMK A01 T01311140  RH  014%=      5-min Rain = 0
KPD2 112354Z 35008KT 13/M14 A3028 RMK A01 T01301143  RH  014%=      5-min Rain = 0
KPD2 112355Z 32005KT 13/M15 A3028 RMK A01 T01301146  RH  013%=      5-min Rain = 0
KPD2 112356Z 34005KT 13/M15 A3028 RMK A01 T01291148  RH  013%=      5-min Rain = 0
KPD2 112357Z 31003KT 13/M15 A3028 RMK A01 T01291147  RH  013%=      5-min Rain = 0
KPD2 112358Z 35006G11KT 13/M15 A3028 RMK A01 T01281149  RH  013%=      5-min Rain = 0
KPD2 112359Z 35006KT 13/M15 A3028 RMK A01 T01271150  RH  013%=      5-min Rain = 0
KPD2 120000Z 34006KT 13/M15 A3028 RMK A01 T01271151  RH  013%=      5-min Rain = 0
KPD2 120001Z 36006G13KT 13/M15 A3028 RMK A01 T01261152  RH  013%=      5-min Rain = 0
KPD2 120002Z 00004KT 13/M15 A3028 RMK A01 T01251152  RH  013%=      5-min Rain = 0
KPD2 120003Z 34001KT 13/M15 A3028 RMK A01 T01251152  RH  013%=      5-min Rain = 0
KPD2 120004Z 35003KT 13/M15 A3028 RMK A01 T01251151  RH  013%=      5-min Rain = 0
KPD2 120005Z 35005KT 13/M15 A3028 RMK A01 T01251151  RH  013%=      5-min Rain = 0
KPD2 120006Z 34007KT 12/M15 A3028 RMK A01 T01241152  RH  013%=      5-min Rain = 0
KPD2 120007Z 35006KT 12/M15 A3028 RMK A01 T01241153  RH  013%=      5-min Rain = 0
KPD2 120008Z 34005KT 12/M15 A3028 RMK A01 T01231153  RH  013%=      5-min Rain = 0
KPD2 120009Z 32005KT 12/M15 A3028 RMK A01 T01241153  RH  013%=      5-min Rain = 0
KPD2 120010Z 36005KT 12/M15 A3028 RMK A01 T01231153  RH  013%=      5-min Rain = 0
KPD2 120011Z 34005KT 12/M15 A3028 RMK A01 T01231153  RH  013%=      5-min Rain = 0
KPD2 120012Z 33006KT 12/M15 A3028 RMK A01 T01221154  RH  013%=      5-min Rain = 0
KPD2 120013Z 34005KT 12/M15 A3029 RMK A01 T01221154  RH  013%=      5-min Rain = 0
KPD2 120014Z 34005KT 12/M16 A3029 RMK A01 T01221155  RH  013%=      5-min Rain = 0
KPD2 120015Z 32003KT 12/M15 A3029 RMK A01 T01221154  RH  013%=      5-min Rain = 0
KPD2 120016Z 36004KT 12/M15 A3029 RMK A01 T01221154  RH  013%=      5-min Rain = 0
KPD2 120017Z 35007KT 12/M15 A3029 RMK A01 T01221154  RH  013%=      5-min Rain = 0
KPD2 120018Z 02006G11KT 12/M15 A3029 RMK A01 T01211154  RH  013%=      5-min Rain = 0
KPD2 120019Z 34004KT 12/M15 A3029 RMK A01 T01211154  RH  013%=      5-min Rain = 0
KPD2 120020Z 34005KT 12/M15 A3029 RMK A01 T01211154  RH  013%=      5-min Rain = 0
KPD2 120021Z 36005KT 12/M15 A3029 RMK A01 T01211153  RH  013%=      5-min Rain = 0
KPD2 120022Z 32004KT 12/M15 A3029 RMK A01 T01211153  RH  013%=      5-min Rain = 0
KPD2 120023Z 34005KT 12/M15 A3029 RMK A01 T01201153  RH  013%=      5-min Rain = 0
KPD2 120024Z 32003KT 12/M15 A3029 RMK A01 T01201153  RH  013%=      5-min Rain = 0
KPD2 120025Z 32003KT 12/M15 A3029 RMK A01 T01201154  RH  013%=      5-min Rain = 0
KPD2 120026Z 35004KT 12/M15 A3029 RMK A01 T01191153  RH  013%=      5-min Rain = 0
KPD2 120027Z 04004KT 12/M15 A3029 RMK A01 T01191154  RH  013%=      5-min Rain = 0
KPD2 120028Z 35007KT 12/M16 A3029 RMK A01 T01191155  RH  013%=      5-min Rain = 0
KPD2 120029Z 00005KT 12/M16 A3029 RMK A01 T01191155  RH  013%=      5-min Rain = 0
KPD2 120030Z 34005G10KT 12/M16 A3029 RMK A01 T01191155  RH  013%=      5-min Rain = 0
KPD2 120031Z 34006KT 12/M16 A3029 RMK A01 T01191156  RH  013%=      5-min Rain = 0
KPD2 120032Z 34003KT 12/M16 A3029 RMK A01 T01191157  RH  013%=      5-min Rain = 0
KPD2 120033Z 31004KT 12/M16 A3029 RMK A01 T01181157  RH  013%=      5-min Rain = 0
KPD2 120034Z 33004KT 12/M16 A3029 RMK A01 T01181156  RH  013%=      5-min Rain = 0
KPD2 120035Z 01004KT 12/M16 A3029 RMK A01 T01181156  RH  013%=      5-min Rain = 0
KPD2 120036Z 31004KT 12/M16 A3029 RMK A01 T01171158  RH  013%=      5-min Rain = 0
KPD2 120037Z 33003KT 12/M16 A3029 RMK A01 T01161156  RH  013%=      5-min Rain = 0
KPD2 120038Z 34003KT 12/M16 A3029 RMK A01 T01161158  RH  013%=      5-min Rain = 0
KPD2 120039Z 34004KT 12/M16 A303 RMK A01 T01161159  RH  013%=      5-min Rain = 0
KPD2 120040Z 31002KT 12/M16 A303 RMK A01 T01161159  RH  013%=      5-min Rain = 0
KPD2 120041Z 30001KT 12/M16 A303 RMK A01 T01161159  RH  013%=      5-min Rain = 0
KPD2 120042Z 29002KT 12/M16 A303 RMK A01 T01161159  RH  013%=      5-min Rain = 0
KPD2 120043Z 32004KT 12/M16 A303 RMK A01 T01151160  RH  013%=      5-min Rain = 0
KPD2 120044Z 32006G11KT 12/M16 A303 RMK A01 T01151160  RH  013%=      5-min Rain = 0
KPD2 120045Z 35004KT 12/M16 A303 RMK A01 T01151161  RH  013%=      5-min Rain = 0
KPD2 120046Z 36006KT 11/M16 A303 RMK A01 T01141161  RH  013%=      5-min Rain = 0
KPD2 120047Z 05003KT 11/M16 A303 RMK A01 T01141162  RH  013%=      5-min Rain = 0
KPD2 120048Z 34003KT 11/M16 A303 RMK A01 T01141161  RH  013%=      5-min Rain = 0
KPD2 120049Z 34003KT 11/M16 A303 RMK A01 T01141161  RH  013%=      5-min Rain = 0
KPD2 120050Z 34004KT 11/M16 A303 RMK A01 T01131161  RH  013%=      5-min Rain = 0
KPD2 120051Z 32003KT 11/M16 A303 RMK A01 T01121162  RH  013%=      5-min Rain = 0
KPD2 120052Z 33003KT 11/M16 A303 RMK A01 T01111161  RH  013%=      5-min Rain = 0
KPD2 120053Z 34005KT 11/M16 A303 RMK A01 T01091161  RH  013%=      5-min Rain = 0
KPD2 120054Z 34004KT 11/M16 A303 RMK A01 T01091161  RH  013%=      5-min Rain = 0
KPD2 120055Z 31003KT 11/M16 A303 RMK A01 T01091160  RH  014%=      5-min Rain = 0
KPD2 120056Z 32004KT 11/M16 A303 RMK A01 T01091160  RH  014%=      5-min Rain = 0
KPD2 120057Z 34004KT 11/M16 A303 RMK A01 T01091160  RH  014%=      5-min Rain = 0
KPD2 120058Z 31003KT 11/M16 A303 RMK A01 T01101159  RH  014%=      5-min Rain = 0
KPD2 120059Z 34005KT 11/M16 A303 RMK A01 T01101159  RH  014%=      5-min Rain = 0
KPD2 120100Z 08002KT 11/M16 A3031 RMK A01 T01091160  RH  014%=      5-min Rain = 0
KPD2 120101Z 34002KT 11/M16 A3031 RMK A01 T01091160  RH  014%=      5-min Rain = 0
KPD2 120102Z 35001KT 11/M16 A3031 RMK A01 T01091160  RH  014%=      5-min Rain = 0
KPD2 120103Z 34001KT 11/M16 A3031 RMK A01 T01091160  RH  014%=      5-min Rain = 0
KPD2 120104Z 35004KT 11/M16 A3031 RMK A01 T01081159  RH  014%=      5-min Rain = 0
KPD2 120105Z 35003KT 11/M16 A3031 RMK A01 T01071160  RH  014%=      5-min Rain = 0
KPD2 120106Z 34001KT 11/M16 A3031 RMK A01 T01051160  RH  014%=      5-min Rain = 0
KPD2 120107Z 35002KT 10/M16 A3031 RMK A01 T01031161  RH  014%=      5-min Rain = 0
KPD2 120108Z 02004KT 10/M16 A3031 RMK A01 T01031160  RH  014%=      5-min Rain = 0
KPD2 120109Z 03003KT 10/M16 A3031 RMK A01 T01021160  RH  014%=      5-min Rain = 0
KPD2 120110Z 34003KT 10/M16 A3031 RMK A01 T01021159  RH  014%=      5-min Rain = 0
KPD2 120111Z 36002KT 10/M16 A3031 RMK A01 T01011160  RH  014%=      5-min Rain = 0
KPD2 120112Z 01003KT 10/M16 A3031 RMK A01 T00981161  RH  014%=      5-min Rain = 0
KPD2 120113Z 01002KT 10/M16 A3031 RMK A01 T00971159  RH  015%=      5-min Rain = 0
KPD2 120114Z 01004KT 10/M16 A3031 RMK A01 T00961159  RH  015%=      5-min Rain = 0
KPD2 120115Z 02004KT 10/M16 A3031 RMK A01 T00951159  RH  015%=      5-min Rain = 0
KPD2 120116Z 03005KT 09/M16 A3031 RMK A01 T00941159  RH  015%=      5-min Rain = 0
KPD2 120117Z 04003KT 10/M16 A3031 RMK A01 T00951158  RH  015%=      5-min Rain = 0
KPD2 120118Z 03004KT 10/M16 A3031 RMK A01 T00961157  RH  015%=      5-min Rain = 0
KPD2 120119Z 03005KT 10/M16 A3031 RMK A01 T00951158  RH  015%=      5-min Rain = 0
KPD2 120120Z 04005KT 10/M16 A3031 RMK A01 T00961158  RH  015%=      5-min Rain = 0
KPD2 120121Z 03005KT 10/M16 A3031 RMK A01 T00961158  RH  015%=      5-min Rain = 0
KPD2 120122Z 04004KT 10/M16 A3031 RMK A01 T00961157  RH  015%=      5-min Rain = 0
KPD2 120123Z 03005KT 10/M16 A3031 RMK A01 T00961157  RH  015%=      5-min Rain = 0
KPD2 120124Z 04005KT 10/M16 A3031 RMK A01 T00961157  RH  015%=      5-min Rain = 0
KPD2 120125Z 03005KT 10/M16 A3031 RMK A01 T00961157  RH  015%=      5-min Rain = 0
KPD2 120126Z 03006KT 10/M16 A3031 RMK A01 T00971156  RH  015%=      5-min Rain = 0
KPD2 120127Z 02005KT 10/M16 A3031 RMK A01 T00961156  RH  015%=      5-min Rain = 0
KPD2 120128Z 03004KT 10/M16 A3031 RMK A01 T00961157  RH  015%=      5-min Rain = 0
KPD2 120129Z 03006KT 10/M16 A3031 RMK A01 T00951157  RH  015%=      5-min Rain = 0
KPD2 120130Z 03005KT 10/M16 A3031 RMK A01 T00951156  RH  015%=      5-min Rain = 0
KPD2 120131Z 03007KT 10/M16 A3031 RMK A01 T00951155  RH  015%=      5-min Rain = 0
KPD2 120132Z 03006KT 09/M16 A3031 RMK A01 T00941155  RH  016%=      5-min Rain = 0
KPD2 120133Z 03007KT 09/M16 A3031 RMK A01 T00941155  RH  016%=      5-min Rain = 0
KPD2 120134Z 03006KT 10/M15 A3031 RMK A01 T00951154  RH  016%=      5-min Rain = 0
KPD2 120135Z 03006KT 10/M15 A3031 RMK A01 T00951154  RH  016%=      5-min Rain = 0
KPD2 120136Z 04006KT 10/M15 A3031 RMK A01 T00961153  RH  016%=      5-min Rain = 0
KPD2 120137Z 03005KT 10/M15 A3031 RMK A01 T00961153  RH  016%=      5-min Rain = 0
KPD2 120138Z 02006KT 10/M15 A3031 RMK A01 T00971153  RH  016%=      5-min Rain = 0
KPD2 120139Z 03005KT 10/M15 A3031 RMK A01 T00971152  RH  016%=      5-min Rain = 0
KPD2 120140Z 03005KT 10/M15 A3032 RMK A01 T00961152  RH  016%=      5-min Rain = 0
KPD2 120141Z 03005KT 10/M15 A3032 RMK A01 T00951153  RH  016%=      5-min Rain = 0
KPD2 120142Z 03007KT 10/M15 A3031 RMK A01 T00961152  RH  016%=      5-min Rain = 0
KPD2 120143Z 02006KT 10/M15 A3032 RMK A01 T00961152  RH  016%=      5-min Rain = 0
KPD2 120144Z 00004KT 10/M15 A3032 RMK A01 T00961151  RH  016%=      5-min Rain = 0
KPD2 120145Z 01004KT 10/M15 A3032 RMK A01 T00971151  RH  016%=      5-min Rain = 0
KPD2 120146Z 03002KT 10/M15 A3032 RMK A01 T00961148  RH  016%=      5-min Rain = 0
KPD2 120147Z 02002KT 10/M15 A3032 RMK A01 T00961148  RH  016%=      5-min Rain = 0
KPD2 120148Z 00002KT 10/M15 A3032 RMK A01 T00961148  RH  016%=      5-min Rain = 0
KPD2 120149Z 04005KT 10/M15 A3032 RMK A01 T00951147  RH  016%=      5-min Rain = 0
KPD2 120150Z 34002KT 10/M15 A3032 RMK A01 T00961146  RH  017%=      5-min Rain = 0
KPD2 120151Z 03004KT 10/M15 A3032 RMK A01 T00961145  RH  017%=      5-min Rain = 0
KPD2 120152Z 02002KT 10/M14 A3032 RMK A01 T00961143  RH  017%=      5-min Rain = 0
KPD2 120153Z 01003KT 10/M14 A3032 RMK A01 T00951143  RH  017%=      5-min Rain = 0
KPD2 120154Z 01004G9KT 09/M14 A3032 RMK A01 T00941144  RH  017%=      5-min Rain = 0
KPD2 120155Z 02007KT 09/M14 A3032 RMK A01 T00921144  RH  017%=      5-min Rain = 0
KPD2 120156Z 02004KT 09/M14 A3032 RMK A01 T00921141  RH  018%=      5-min Rain = 0
KPD2 120157Z 35004KT 09/M14 A3032 RMK A01 T00921140  RH  018%=      5-min Rain = 0
KPD2 120158Z 02007KT 09/M14 A3032 RMK A01 T00911140  RH  018%=      5-min Rain = 0
KPD2 120159Z 01006KT 09/M14 A3032 RMK A01 T00901138  RH  018%=      5-min Rain = 0
KPD2 120200Z 01005KT 09/M13 A3032 RMK A01 T00911134  RH  019%=      5-min Rain = 0
KPD2 120201Z 01006KT 09/M14 A3032 RMK A01 T00901135  RH  019%=      5-min Rain = 0
KPD2 120202Z 01006KT 09/M13 A3032 RMK A01 T00901133  RH  019%=      5-min Rain = 0
KPD2 120203Z 01003KT 09/M13 A3032 RMK A01 T00891130  RH  020%=      5-min Rain = 0
KPD2 120204Z 36006KT 09/M13 A3032 RMK A01 T00891129  RH  020%=      5-min Rain = 0
KPD2 120205Z 36006KT 09/M13 A3033 RMK A01 T00891129  RH  020%=      5-min Rain = 0
KPD2 120206Z 36004KT 09/M13 A3033 RMK A01 T00881130  RH  020%=      5-min Rain = 0
KPD2 120207Z 34004KT 09/M13 A3033 RMK A01 T00871130  RH  020%=      5-min Rain = 0
KPD2 120208Z 34006KT 09/M13 A3033 RMK A01 T00881126  RH  021%=      5-min Rain = 0
KPD2 120209Z 00004KT 09/M13 A3033 RMK A01 T00881125  RH  021%=      5-min Rain = 0
KPD2 120210Z 35003KT 09/M13 A3033 RMK A01 T00881125  RH  021%=      5-min Rain = 0
KPD2 120211Z 34006KT 09/M12 A3033 RMK A01 T00871122  RH  021%=      5-min Rain = 0
KPD2 120212Z 34006KT 09/M13 A3033 RMK A01 T00871126  RH  021%=      5-min Rain = 0
KPD2 120213Z 34003KT 09/M12 A3033 RMK A01 T00861122  RH  021%=      5-min Rain = 0
KPD2 120214Z 34005KT 09/M12 A3033 RMK A01 T00871120  RH  022%=      5-min Rain = 0
KPD2 120215Z 34008G14KT 09/M12 A3033 RMK A01 T00881120  RH  022%=      5-min Rain = 0
KPD2 120216Z 34003G9KT 09/M11 A3033 RMK A01 T00881113  RH  023%=      5-min Rain = 0
KPD2 120217Z 35007KT 09/M11 A3033 RMK A01 T00901111  RH  023%=      5-min Rain = 0
KPD2 120218Z 33006G11KT 09/M11 A3033 RMK A01 T00911111  RH  023%=      5-min Rain = 0
KPD2 120219Z 34006KT 09/M11 A3033 RMK A01 T00911111  RH  023%=      5-min Rain = 0
KPD2 120220Z 34006KT 09/M12 A3033 RMK A01 T00901116  RH  022%=      5-min Rain = 0
KPD2 120221Z 36005KT 09/M12 A3033 RMK A01 T00871119  RH  022%=      5-min Rain = 0
KPD2 120222Z 35003KT 09/M11 A3033 RMK A01 T00861111  RH  024%=      5-min Rain = 0
KPD2 120223Z 34004KT 09/M11 A3033 RMK A01 T00861111  RH  024%=      5-min Rain = 0
KPD2 120224Z 35003KT 09/M11 A3033 RMK A01 T00861109  RH  024%=      5-min Rain = 0
KPD2 120225Z 33003KT 09/M11 A3033 RMK A01 T00861109  RH  024%=      5-min Rain = 0
KPD2 120226Z 33003KT 09/M11 A3033 RMK A01 T00851109  RH  024%=      5-min Rain = 0
KPD2 120227Z 34004KT 09/M11 A3034 RMK A01 T00851107  RH  024%=      5-min Rain = 0
KPD2 120228Z 35005KT 09/M11 A3034 RMK A01 T00871105  RH  025%=      5-min Rain = 0
KPD2 120229Z 35005KT 09/M11 A3034 RMK A01 T00871105  RH  025%=      5-min Rain = 0
KPD2 120230Z 00005KT 09/M11 A3034 RMK A01 T00871105  RH  025%=      5-min Rain = 0
KPD2 120231Z 35005KT 09/M11 A3034 RMK A01 T00861106  RH  024%=      5-min Rain = 0
KPD2 120232Z 36003KT 09/M11 A3034 RMK A01 T00851107  RH  024%=      5-min Rain = 0
KPD2 120233Z 34004KT 08/M11 A3034 RMK A01 T00841108  RH  024%=      5-min Rain = 0
KPD2 120234Z 33005KT 08/M11 A3034 RMK A01 T00841106  RH  025%=      5-min Rain = 0
KPD2 120235Z 33005KT 08/M10 A3034 RMK A01 T00841103  RH  025%=      5-min Rain = 0
KPD2 120236Z 35003KT 09/M10 A3034 RMK A01 T00851103  RH  025%=      5-min Rain = 0
KPD2 120237Z 34002KT 09/M10 A3034 RMK A01 T00851103  RH  025%=      5-min Rain = 0
KPD2 120238Z 33004KT 09/M10 A3034 RMK A01 T00851102  RH  025%=      5-min Rain = 0
KPD2 120239Z 34004KT 09/M10 A3034 RMK A01 T00851102  RH  026%=      5-min Rain = 0
KPD2 120240Z 33003KT 08/M10 A3034 RMK A01 T00841102  RH  026%=      5-min Rain = 0
KPD2 120241Z 00003KT 09/M10 A3034 RMK A01 T00851102  RH  026%=      5-min Rain = 0
KPD2 120242Z 35002KT 08/M10 A3034 RMK A01 T00841101  RH  026%=      5-min Rain = 0
KPD2 120243Z 01002KT 08/M10 A3035 RMK A01 T00831102  RH  026%=      5-min Rain = 0
KPD2 120244Z 09002KT 08/M10 A3035 RMK A01 T00821104  RH  026%=      5-min Rain = 0
KPD2 120245Z 18002KT 08/M11 A3035 RMK A01 T00811106  RH  025%=      5-min Rain = 0
KPD2 120246Z 08000KT 08/M11 A3035 RMK A01 T00801108  RH  025%=      5-min Rain = 0
KPD2 120247Z 26003KT 08/M11 A3035 RMK A01 T00791107  RH  025%=      5-min Rain = 0
KPD2 120248Z 26002KT 08/M11 A3035 RMK A01 T00781113  RH  025%=      5-min Rain = 0
KPD2 120249Z 28002KT 08/M12 A3035 RMK A01 T00751115  RH  024%=      5-min Rain = 0
KPD2 120250Z 28003KT 07/M12 A3035 RMK A01 T00731115  RH  025%=      5-min Rain = 0
KPD2 120251Z 27003KT 07/M12 A3035 RMK A01 T00721116  RH  025%=      5-min Rain = 0
KPD2 120252Z 26001KT 07/M12 A3035 RMK A01 T00701115  RH  025%=      5-min Rain = 0
KPD2 120253Z 23002KT 07/M12 A3035 RMK A01 T00691116  RH  025%=      5-min Rain = 0
KPD2 120254Z 23002KT 07/M12 A3035 RMK A01 T00681117  RH  025%=      5-min Rain = 0
KPD2 120255Z 23003KT 07/M12 A3035 RMK A01 T00661117  RH  026%=      5-min Rain = 0
KPD2 120256Z 24003KT 07/M12 A3035 RMK A01 T00661116  RH  026%=      5-min Rain = 0
KPD2 120257Z 23002KT 07/M12 A3035 RMK A01 T00651117  RH  026%=      5-min Rain = 0
KPD2 120258Z 21002KT 07/M12 A3035 RMK A01 T00651116  RH  026%=      5-min Rain = 0
KPD2 120259Z 22003KT 06/M12 A3035 RMK A01 T00641117  RH  026%=      5-min Rain = 0
KPD2 120300Z 23003KT 06/M12 A3035 RMK A01 T00641117  RH  026%=      5-min Rain = 0
KPD2 120301Z 23002KT 06/M12 A3035 RMK A01 T00631117  RH  026%=      5-min Rain = 0
KPD2 120302Z 23003KT 06/M12 A3035 RMK A01 T00621118  RH  026%=      5-min Rain = 0
KPD2 120303Z 19001KT 06/M12 A3035 RMK A01 T00611118  RH  026%=      5-min Rain = 0
KPD2 120304Z 23002KT 06/M12 A3035 RMK A01 T00601117  RH  027%=      5-min Rain = 0
KPD2 120305Z 25001KT 06/M12 A3035 RMK A01 T00601116  RH  027%=      5-min Rain = 0
KPD2 120306Z 25001KT 06/M12 A3035 RMK A01 T00601116  RH  027%=      5-min Rain = 0
KPD2 120307Z 22002KT 06/M12 A3035 RMK A01 T00591115  RH  027%=      5-min Rain = 0
KPD2 120308Z 23003KT 06/M11 A3035 RMK A01 T00591114  RH  028%=      5-min Rain = 0
KPD2 120309Z 23002KT 06/M11 A3035 RMK A01 T00591113  RH  028%=      5-min Rain = 0
KPD2 120310Z 26002KT 06/M11 A3035 RMK A01 T00591112  RH  028%=      5-min Rain = 0
KPD2 120311Z 28002KT 06/M10 A3035 RMK A01 T00631100  RH  030%=      5-min Rain = 0
KPD2 120312Z 33001KT 07/M10 A3035 RMK A01 T00671104  RH  028%=      5-min Rain = 0
KPD2 120313Z 29000KT 07/M11 A3035 RMK A01 T00661111  RH  027%=      5-min Rain = 0
KPD2 120314Z 19001KT 06/M11 A3035 RMK A01 T00641108  RH  028%=      5-min Rain = 0
KPD2 120315Z 23003KT 06/M11 A3035 RMK A01 T00641109  RH  028%=      5-min Rain = 0
KPD2 120316Z 21003KT 06/M11 A3035 RMK A01 T00621111  RH  028%=      5-min Rain = 0
KPD2 120317Z 18000KT 06/M11 A3035 RMK A01 T00611112  RH  028%=      5-min Rain = 0
KPD2 120318Z 25001KT 06/M11 A3035 RMK A01 T00601112  RH  028%=      5-min Rain = 0
KPD2 120319Z 25002KT 06/M11 A3035 RMK A01 T00591112  RH  028%=      5-min Rain = 0
KPD2 120320Z 25003KT 06/M11 A3035 RMK A01 T00591112  RH  028%=      5-min Rain = 0
KPD2 120321Z 26003KT 06/M11 A3036 RMK A01 T00591112  RH  028%=      5-min Rain = 0
KPD2 120322Z 25004KT 06/M11 A3036 RMK A01 T00581111  RH  028%=      5-min Rain = 0
KPD2 120323Z 25004KT 06/M11 A3036 RMK A01 T00581111  RH  029%=      5-min Rain = 0
KPD2 120324Z 24003KT 06/M11 A3036 RMK A01 T00571111  RH  029%=      5-min Rain = 0
KPD2 120325Z 24003KT 06/M11 A3036 RMK A01 T00561110  RH  029%=      5-min Rain = 0
KPD2 120326Z 27003KT 06/M11 A3036 RMK A01 T00561109  RH  029%=      5-min Rain = 0
KPD2 120327Z 26004KT 06/M11 A3036 RMK A01 T00561108  RH  030%=      5-min Rain = 0
KPD2 120328Z 26003KT 06/M11 A3036 RMK A01 T00571107  RH  030%=      5-min Rain = 0
KPD2 120329Z 25003KT 06/M11 A3035 RMK A01 T00561110  RH  029%=      5-min Rain = 0
KPD2 120330Z 23002KT 06/M11 A3035 RMK A01 T00561109  RH  030%=      5-min Rain = 0
KPD2 120331Z 25002KT 06/M11 A3035 RMK A01 T00561107  RH  030%=      5-min Rain = 0
KPD2 120332Z 25004KT 06/M11 A3035 RMK A01 T00551108  RH  030%=      5-min Rain = 0
KPD2 120333Z 25001KT 06/M11 A3035 RMK A01 T00551108  RH  030%=      5-min Rain = 0
KPD2 120334Z 27002KT 05/M11 A3035 RMK A01 T00541109  RH  030%=      5-min Rain = 0
KPD2 120335Z 26002KT 05/M10 A3035 RMK A01 T00541102  RH  031%=      5-min Rain = 0
KPD2 120336Z 21001KT 06/M10 A3035 RMK A01 T00571102  RH  031%=      5-min Rain = 0
KPD2 120337Z 16002KT 06/M10 A3035 RMK A01 T00591096  RH  032%=      5-min Rain = 0
KPD2 120338Z 00001KT 06/M09 A3035 RMK A01 T00621092  RH  032%=      5-min Rain = 0
KPD2 120339Z 26002KT 06/M10 A3035 RMK A01 T00631099  RH  030%=      5-min Rain = 0
KPD2 120340Z 20001KT 06/M10 A3035 RMK A01 T00621103  RH  030%=      5-min Rain = 0
KPD2 120341Z 24002KT 06/M10 A3035 RMK A01 T00611102  RH  030%=      5-min Rain = 0
KPD2 120342Z 25003KT 06/M10 A3035 RMK A01 T00601102  RH  030%=      5-min Rain = 0
KPD2 120343Z 25004KT 06/M10 A3035 RMK A01 T00601103  RH  030%=      5-min Rain = 0
KPD2 120344Z 24003KT 06/M10 A3035 RMK A01 T00591104  RH  030%=      5-min Rain = 0
KPD2 120345Z 24003KT 06/M11 A3035 RMK A01 T00581105  RH  030%=      5-min Rain = 0
KPD2 120346Z 21003KT 06/M10 A3035 RMK A01 T00571104  RH  030%=      5-min Rain = 0
KPD2 120347Z 24002KT 06/M10 A3035 RMK A01 T00571103  RH  031%=      5-min Rain = 0
KPD2 120348Z 25003KT 06/M10 A3035 RMK A01 T00571103  RH  031%=      5-min Rain = 0
KPD2 120349Z 25002KT 06/M10 A3035 RMK A01 T00561104  RH  031%=      5-min Rain = 0
KPD2 120350Z 25002KT 06/M10 A3035 RMK A01 T00561104  RH  031%=      5-min Rain = 0
KPD2 120351Z 26003KT 06/M10 A3035 RMK A01 T00551102  RH  031%=      5-min Rain = 0
KPD2 120352Z 26003KT 06/M10 A3035 RMK A01 T00551101  RH  032%=      5-min Rain = 0
KPD2 120353Z 24003KT 06/M10 A3035 RMK A01 T00551101  RH  031%=      5-min Rain = 0
KPD2 120354Z 23002KT 06/M10 A3035 RMK A01 T00551099  RH  032%=      5-min Rain = 0
KPD2 120355Z 24002KT 06/M10 A3035 RMK A01 T00561096  RH  033%=      5-min Rain = 0
KPD2 120356Z 24002KT 06/M10 A3035 RMK A01 T00561099  RH  032%=      5-min Rain = 0
KPD2 120357Z 22001KT 06/M10 A3035 RMK A01 T00551101  RH  032%=      5-min Rain = 0
KPD2 120358Z 25000KT 05/M10 A3036 RMK A01 T00541102  RH  032%=      5-min Rain = 0
KPD2 120359Z 26002KT 05/M10 A3035 RMK A01 T00521102  RH  032%=      5-min Rain = 0
KPD2 120400Z 26003KT 05/M10 A3036 RMK A01 T00521101  RH  032%=      5-min Rain = 0
KPD2 120401Z 27001KT 05/M10 A3036 RMK A01 T00511101  RH  032%=      5-min Rain = 0
KPD2 120402Z 01002KT 05/M10 A3036 RMK A01 T00501102  RH  032%=      5-min Rain = 0
KPD2 120403Z 23001KT 05/M10 A3036 RMK A01 T00481102  RH  033%=      5-min Rain = 0
KPD2 120404Z 24002KT 05/M10 A3036 RMK A01 T00481102  RH  033%=      5-min Rain = 0
KPD2 120405Z 04001KT 05/M10 A3036 RMK A01 T00481102  RH  033%=      5-min Rain = 0
KPD2 120406Z 12000KT 05/M10 A3036 RMK A01 T00471101  RH  033%=      5-min Rain = 0
KPD2 120407Z 19001KT 05/M10 A3036 RMK A01 T00481097  RH  034%=      5-min Rain = 0
KPD2 120408Z 22002KT 05/M09 A3036 RMK A01 T00491094  RH  035%=      5-min Rain = 0
KPD2 120409Z 22001KT 05/M10 A3036 RMK A01 T00511095  RH  034%=      5-min Rain = 0
KPD2 120410Z 13000KT 05/M10 A3036 RMK A01 T00511097  RH  034%=      5-min Rain = 0
KPD2 120411Z 24000KT 05/M10 A3036 RMK A01 T00501097  RH  034%=      5-min Rain = 0
KPD2 120412Z 23002KT 05/M10 A3036 RMK A01 T00501096  RH  034%=      5-min Rain = 0
KPD2 120413Z 23001KT 05/M09 A3036 RMK A01 T00501094  RH  034%=      5-min Rain = 0
KPD2 120414Z 23002KT 05/M09 A3036 RMK A01 T00501094  RH  034%=      5-min Rain = 0
KPD2 120415Z 22002KT 05/M09 A3036 RMK A01 T00511094  RH  034%=      5-min Rain = 0
KPD2 120416Z 23002KT 05/M09 A3036 RMK A01 T00511094  RH  034%=      5-min Rain = 0
KPD2 120417Z 21002KT 05/M09 A3036 RMK A01 T00511094  RH  034%=      5-min Rain = 0
KPD2 120418Z 22002KT 05/M09 A3036 RMK A01 T00521093  RH  034%=      5-min Rain = 0
KPD2 120419Z 22002KT 05/M09 A3036 RMK A01 T00541091  RH  034%=      5-min Rain = 0
KPD2 120420Z 20002KT 06/M09 A3036 RMK A01 T00551091  RH  034%=      5-min Rain = 0
KPD2 120421Z 21003KT 06/M09 A3036 RMK A01 T00561089  RH  034%=      5-min Rain = 0
KPD2 120422Z 23002KT 06/M09 A3036 RMK A01 T00581088  RH  034%=      5-min Rain = 0
KPD2 120423Z 22000KT 06/M09 A3036 RMK A01 T00581090  RH  034%=      5-min Rain = 0
KPD2 120424Z 07001KT 06/M09 A3036 RMK A01 T00571092  RH  033%=      5-min Rain = 0
KPD2 120425Z 07001KT 06/M09 A3036 RMK A01 T00561093  RH  033%=      5-min Rain = 0
KPD2 120426Z 12000KT 06/M09 A3036 RMK A01 T00551092  RH  034%=      5-min Rain = 0
KPD2 120427Z 17000KT 06/M09 A3036 RMK A01 T00551091  RH  034%=      5-min Rain = 0
KPD2 120428Z 18001KT 06/M09 A3036 RMK A01 T00551092  RH  034%=      5-min Rain = 0
KPD2 120429Z 18001KT 05/M09 A3036 RMK A01 T00541094  RH  033%=      5-min Rain = 0
KPD2 120430Z 18001KT 05/M09 A3037 RMK A01 T00531094  RH  034%=      5-min Rain = 0
KPD2 120431Z 18001KT 05/M09 A3037 RMK A01 T00531093  RH  034%=      5-min Rain = 0
KPD2 120432Z 18001KT 05/M09 A3037 RMK A01 T00521093  RH  034%=      5-min Rain = 0
KPD2 120433Z 18000KT 05/M09 A3037 RMK A01 T00511093  RH  034%=      5-min Rain = 0
KPD2 120434Z 18000KT 05/M09 A3037 RMK A01 T00511093  RH  035%=      5-min Rain = 0
KPD2 120435Z 18001KT 05/M09 A3037 RMK A01 T00511092  RH  035%=      5-min Rain = 0
KPD2 120436Z 17001KT 05/M09 A3037 RMK A01 T00511092  RH  035%=      5-min Rain = 0
KPD2 120437Z 14001KT 05/M09 A3036 RMK A01 T00511093  RH  035%=      5-min Rain = 0
KPD2 120438Z 12002KT 05/M09 A3036 RMK A01 T00501093  RH  035%=      5-min Rain = 0
KPD2 120439Z 11002KT 05/M09 A3036 RMK A01 T00501093  RH  035%=      5-min Rain = 0
KPD2 120440Z 10002KT 05/M09 A3036 RMK A01 T00501092  RH  035%=      5-min Rain = 0
KPD2 120441Z 10002KT 05/M09 A3036 RMK A01 T00501091  RH  035%=      5-min Rain = 0
KPD2 120442Z 10003KT 05/M09 A3036 RMK A01 T00511091  RH  035%=      5-min Rain = 0
KPD2 120443Z 11002KT 05/M09 A3037 RMK A01 T00511089  RH  036%=      5-min Rain = 0
KPD2 120444Z 12001KT 05/M09 A3037 RMK A01 T00521088  RH  036%=      5-min Rain = 0
KPD2 120445Z 12000KT 05/M09 A3037 RMK A01 T00511092  RH  035%=      5-min Rain = 0
KPD2 120446Z 26002KT 05/M10 A3037 RMK A01 T00491096  RH  034%=      5-min Rain = 0
KPD2 120447Z 26004KT 05/M10 A3037 RMK A01 T00451098  RH  035%=      5-min Rain = 0
KPD2 120448Z 26004KT 04/M10 A3037 RMK A01 T00421098  RH  035%=      5-min Rain = 0
KPD2 120449Z 25005KT 04/M10 A3037 RMK A01 T00411096  RH  036%=      5-min Rain = 0
KPD2 120450Z 25004KT 04/M10 A3037 RMK A01 T00391097  RH  036%=      5-min Rain = 0
KPD2 120451Z 25003KT 04/M10 A3037 RMK A01 T00381097  RH  037%=      5-min Rain = 0
KPD2 120452Z 25002KT 04/M10 A3037 RMK A01 T00391095  RH  037%=      5-min Rain = 0
KPD2 120453Z 23001KT 04/M10 A3037 RMK A01 T00381095  RH  037%=      5-min Rain = 0
KPD2 120454Z 21001KT 04/M10 A3037 RMK A01 T00381095  RH  037%=      5-min Rain = 0
KPD2 120455Z 22001KT 04/M10 A3037 RMK A01 T00381095  RH  037%=      5-min Rain = 0
KPD2 120456Z 23002KT 04/M10 A3037 RMK A01 T00371095  RH  037%=      5-min Rain = 0
KPD2 120457Z 23001KT 04/M09 A3037 RMK A01 T00371092  RH  038%=      5-min Rain = 0
KPD2 120458Z 23001KT 04/M09 A3037 RMK A01 T00371091  RH  039%=      5-min Rain = 0
KPD2 120459Z 00000KT 04/M09 A3037 RMK A01 T00381092  RH  038%=      5-min Rain = 0

Page generated in 0.1576 seconds.